^^
B2 Weather Station Historical Data
Daily Summary for January 4, 2018 Units:  Both    English   Metric
« Previous Day
Next Day »
Daily Weekly Monthly Yearly Custom
  High: Low: Average:
Temperature: 8.3 °F /  -13.2 °C -4.8 °F /  -20.4 °C 0.8 °F /  -17.3 °C
Dew Point: -0.1 °F /  -17.8 °C -9.1 °F /  -22.8 °C -4.9 °F /  -20.5 °C
Humidity: 81 % 67 % 77 %
Wind Speed: 13.8 mph /  22.2 km/h - 9.2 mph /  14.8 km/h
Wind Gust: 13.8 mph /  22.2 km/h - -
Wind:- - WNW
Pressure: 30.38 in /  1028.7 hPa 30.20 in /  1022.6 hPa -
Precipitation: 0.00 in /  0 mm    
Historical Graphs
 
 
Tabular Data for January 4, 2018
Time Temperature Dew Point Pressure Wind Wind Speed Wind Gust Humidity Rainfall Rate (Hourly) solar Conditions
00:02 1.4 °F /  -17 °C -3.9 °F /  -19.9 °C 30.20 in /  1022.6 hPa NW 8.1 mph /  13 km/h 8.1 mph /  13 km/h 78 % 0.00 in /  0 mm 0.0 W/m2 RA
00:05 1.1 °F /  -17.2 °C -4.2 °F /  -20.1 °C 30.21 in /  1022.9 hPa WNW 10.4 mph /  16.7 km/h 10.4 mph /  16.7 km/h 78 % 0.00 in /  0 mm 0.0 W/m2 RA
00:10 0.9 °F /  -17.3 °C -4.4 °F /  -20.2 °C 30.21 in /  1022.9 hPa WNW 10.4 mph /  16.7 km/h 10.4 mph /  16.7 km/h 78 % 0.00 in /  0 mm 0.0 W/m2 CLR
00:15 0.8 °F /  -17.3 °C -4.5 °F /  -20.3 °C 30.20 in /  1022.6 hPa NW 7.0 mph /  11.3 km/h 7.0 mph /  11.3 km/h 78 % 0.00 in /  0 mm 0.0 W/m2 CLR
00:16 0.8 °F /  -17.3 °C -4.5 °F /  -20.3 °C 30.20 in /  1022.6 hPa NW 9.2 mph /  14.8 km/h 9.2 mph /  14.8 km/h 78 % 0.00 in /  0 mm 0.0 W/m2 CLR
00:21 0.5 °F /  -17.5 °C -4.7 °F /  -20.4 °C 30.21 in /  1022.9 hPa WNW 6.9 mph /  11.1 km/h 6.9 mph /  11.1 km/h 78 % 0.00 in /  0 mm 0.0 W/m2 CLR
00:22 0.5 °F /  -17.5 °C -4.7 °F /  -20.4 °C 30.21 in /  1022.9 hPa WNW 8.1 mph /  13 km/h 8.1 mph /  13 km/h 78 % 0.00 in /  0 mm 0.0 W/m2 CLR
00:27 0.4 °F /  -17.6 °C -4.8 °F /  -20.4 °C 30.21 in /  1022.9 hPa NW 8.1 mph /  13 km/h 8.1 mph /  13 km/h 78 % 0.00 in /  0 mm 0.0 W/m2 CLR
00:28 0.3 °F /  -17.6 °C -4.9 °F /  -20.5 °C 30.21 in /  1022.9 hPa WNW 8.1 mph /  13 km/h 8.1 mph /  13 km/h 78 % 0.00 in /  0 mm 0.0 W/m2 CLR
00:31 0.2 °F /  -17.7 °C -4.8 °F /  -20.4 °C 30.21 in /  1022.9 hPa WNW 8.1 mph /  13 km/h 8.1 mph /  13 km/h 79 % 0.00 in /  0 mm 0.0 W/m2 CLR
00:33 0.2 °F /  -17.7 °C -4.8 °F /  -20.4 °C 30.28 in /  1025.3 hPa NW 5.8 mph /  9.3 km/h 5.8 mph /  9.3 km/h 79 % 0.00 in /  0 mm 0.0 W/m2 CLR
00:34 0.2 °F /  -17.7 °C -4.8 °F /  -20.4 °C 30.21 in /  1022.9 hPa NW 8.1 mph /  13 km/h 8.1 mph /  13 km/h 79 % 0.00 in /  0 mm 0.0 W/m2 CLR
00:35 0.1 °F /  -17.7 °C -4.9 °F /  -20.5 °C 30.21 in /  1022.9 hPa WNW 6.9 mph /  11.1 km/h 6.9 mph /  11.1 km/h 79 % 0.00 in /  0 mm 0.0 W/m2 CLR
00:39 0.0 °F /  -17.8 °C -5.0 °F /  -20.6 °C 30.21 in /  1022.9 hPa WNW 7.0 mph /  11.3 km/h 7.0 mph /  11.3 km/h 79 % 0.00 in /  0 mm 0.0 W/m2 CLR
00:44 -0.1 °F /  -17.8 °C -5.1 °F /  -20.6 °C 30.22 in /  1023.2 hPa WNW 8.1 mph /  13 km/h 8.1 mph /  13 km/h 79 % 0.00 in /  0 mm 0.0 W/m2 CLR
00:46 -0.1 °F /  -17.8 °C -5.1 °F /  -20.6 °C 30.22 in /  1023.2 hPa WNW 8.1 mph /  13 km/h 8.1 mph /  13 km/h 79 % 0.00 in /  0 mm 0.0 W/m2 CLR
00:47 -0.1 °F /  -17.8 °C -5.1 °F /  -20.6 °C 30.28 in /  1025.3 hPa West 8.1 mph /  13 km/h 8.1 mph /  13 km/h 79 % 0.00 in /  0 mm 0.0 W/m2 CLR
00:50 -0.2 °F /  -17.9 °C -5.2 °F /  -20.7 °C 30.22 in /  1023.2 hPa WNW 8.1 mph /  13 km/h 8.1 mph /  13 km/h 79 % 0.00 in /  0 mm 0.0 W/m2 CLR
00:55 -0.3 °F /  -17.9 °C -5.3 °F /  -20.7 °C 30.22 in /  1023.2 hPa WNW 6.9 mph /  11.1 km/h 6.9 mph /  11.1 km/h 79 % 0.00 in /  0 mm 0.0 W/m2 CLR
00:57 -0.4 °F /  -18 °C -5.4 °F /  -20.8 °C 30.22 in /  1023.2 hPa WNW 8.1 mph /  13 km/h 8.1 mph /  13 km/h 79 % 0.00 in /  0 mm 0.0 W/m2 CLR
01:02 -0.5 °F /  -18.1 °C -5.5 °F /  -20.8 °C 30.22 in /  1023.2 hPa WNW 5.8 mph /  9.3 km/h 5.8 mph /  9.3 km/h 79 % 0.00 in /  0 mm 0.0 W/m2 CLR
01:03 -0.5 °F /  -18.1 °C -5.5 °F /  -20.8 °C 30.22 in /  1023.2 hPa WNW 6.9 mph /  11.1 km/h 6.9 mph /  11.1 km/h 79 % 0.00 in /  0 mm 0.0 W/m2 CLR
01:05 -0.6 °F /  -18.1 °C -5.6 °F /  -20.9 °C 30.22 in /  1023.2 hPa WNW 8.1 mph /  13 km/h 8.1 mph /  13 km/h 79 % 0.00 in /  0 mm 0.0 W/m2 CLR
01:09 -0.6 °F /  -18.1 °C -5.6 °F /  -20.9 °C 30.22 in /  1023.2 hPa WNW 8.1 mph /  13 km/h 8.1 mph /  13 km/h 79 % 0.00 in /  0 mm 0.0 W/m2 CLR
01:12 -0.7 °F /  -18.2 °C -5.7 °F /  -20.9 °C 30.22 in /  1023.2 hPa WNW 6.0 mph /  9.7 km/h 6.0 mph /  9.7 km/h 79 % 0.00 in /  0 mm 0.0 W/m2 CLR
01:13 -0.7 °F /  -18.2 °C -5.7 °F /  -20.9 °C 30.28 in /  1025.3 hPa WNW 5.0 mph /  8 km/h 5.0 mph /  8 km/h 79 % 0.00 in /  0 mm 0.0 W/m2 CLR
01:16 -0.8 °F /  -18.2 °C -5.7 °F /  -20.9 °C 30.22 in /  1023.2 hPa WNW 8.1 mph /  13 km/h 8.1 mph /  13 km/h 79 % 0.00 in /  0 mm 0.0 W/m2 CLR
01:17 -0.8 °F /  -18.2 °C -5.7 °F /  -20.9 °C 30.28 in /  1025.3 hPa NW 8.1 mph /  13 km/h 8.1 mph /  13 km/h 79 % 0.00 in /  0 mm 0.0 W/m2 CLR
01:22 -0.9 °F /  -18.3 °C -5.8 °F /  -21 °C 30.22 in /  1023.2 hPa WNW 5.8 mph /  9.3 km/h 5.8 mph /  9.3 km/h 79 % 0.00 in /  0 mm 0.0 W/m2 CLR
01:23 -0.9 °F /  -18.3 °C -5.8 °F /  -21 °C 30.22 in /  1023.2 hPa WNW 8.1 mph /  13 km/h 8.1 mph /  13 km/h 79 % 0.00 in /  0 mm 0.0 W/m2 CLR
01:28 -0.9 °F /  -18.3 °C -5.8 °F /  -21 °C 30.22 in /  1023.2 hPa WNW 5.8 mph /  9.3 km/h 5.8 mph /  9.3 km/h 79 % 0.00 in /  0 mm 0.0 W/m2 CLR
01:29 -0.9 °F /  -18.3 °C -5.8 °F /  -21 °C 30.22 in /  1023.2 hPa WNW 6.0 mph /  9.7 km/h 6.0 mph /  9.7 km/h 79 % 0.00 in /  0 mm 0.0 W/m2 CLR
01:34 -0.9 °F /  -18.3 °C -5.6 °F /  -20.9 °C 30.22 in /  1023.2 hPa WNW 5.8 mph /  9.3 km/h 5.8 mph /  9.3 km/h 80 % 0.00 in /  0 mm 0.0 W/m2 CLR
01:35 -0.9 °F /  -18.3 °C -5.6 °F /  -20.9 °C 30.22 in /  1023.2 hPa NW 4.6 mph /  7.4 km/h 4.6 mph /  7.4 km/h 80 % 0.00 in /  0 mm 0.0 W/m2 CLR
01:38 -0.9 °F /  -18.3 °C -5.6 °F /  -20.9 °C 30.29 in /  1025.6 hPa WNW 8.1 mph /  13 km/h 8.1 mph /  13 km/h 80 % 0.00 in /  0 mm 0.0 W/m2 CLR
01:40 -0.8 °F /  -18.2 °C -5.5 °F /  -20.8 °C 30.22 in /  1023.2 hPa NW 10.4 mph /  16.7 km/h 10.4 mph /  16.7 km/h 80 % 0.00 in /  0 mm 0.0 W/m2 CLR
01:41 -0.8 °F /  -18.2 °C -5.5 °F /  -20.8 °C 30.22 in /  1023.2 hPa NW 8.1 mph /  13 km/h 8.1 mph /  13 km/h 80 % 0.00 in /  0 mm 0.0 W/m2 CLR
01:46 -0.8 °F /  -18.2 °C -5.5 °F /  -20.8 °C 30.22 in /  1023.2 hPa West 6.0 mph /  9.7 km/h 6.0 mph /  9.7 km/h 80 % 0.00 in /  0 mm 0.0 W/m2 CLR
01:51 -0.9 °F /  -18.3 °C -5.8 °F /  -21 °C 30.22 in /  1023.2 hPa WNW 5.8 mph /  9.3 km/h 5.8 mph /  9.3 km/h 79 % 0.00 in /  0 mm 0.0 W/m2 CLR
01:52 -0.9 °F /  -18.3 °C -5.8 °F /  -21 °C 30.22 in /  1023.2 hPa NW 6.9 mph /  11.1 km/h 6.9 mph /  11.1 km/h 79 % 0.00 in /  0 mm 0.0 W/m2 CLR
01:55 -0.9 °F /  -18.3 °C -5.6 °F /  -20.9 °C 30.22 in /  1023.2 hPa WNW 9.2 mph /  14.8 km/h 9.2 mph /  14.8 km/h 80 % 0.00 in /  0 mm 0.0 W/m2 CLR
01:57 -0.9 °F /  -18.3 °C -5.8 °F /  -21 °C 30.22 in /  1023.2 hPa WNW 5.8 mph /  9.3 km/h 5.8 mph /  9.3 km/h 79 % 0.00 in /  0 mm 0.0 W/m2 CLR
02:02 -0.9 °F /  -18.3 °C -5.6 °F /  -20.9 °C 30.22 in /  1023.2 hPa WNW 8.0 mph /  12.9 km/h 8.0 mph /  12.9 km/h 80 % 0.00 in /  0 mm 0.0 W/m2 CLR
02:04 -0.9 °F /  -18.3 °C -5.6 °F /  -20.9 °C 30.22 in /  1023.2 hPa WNW 8.1 mph /  13 km/h 8.1 mph /  13 km/h 80 % 0.00 in /  0 mm 0.0 W/m2 CLR
02:05 -0.9 °F /  -18.3 °C -5.6 °F /  -20.9 °C 30.22 in /  1023.2 hPa West 6.9 mph /  11.1 km/h 6.9 mph /  11.1 km/h 80 % 0.00 in /  0 mm 0.0 W/m2 CLR
02:07 -0.9 °F /  -18.3 °C -5.6 °F /  -20.9 °C 30.22 in /  1023.2 hPa WNW 6.9 mph /  11.1 km/h 6.9 mph /  11.1 km/h 80 % 0.00 in /  0 mm 0.0 W/m2 CLR
02:10 -0.9 °F /  -18.3 °C -5.8 °F /  -21 °C 30.22 in /  1023.2 hPa West 10.4 mph /  16.7 km/h 10.4 mph /  16.7 km/h 79 % 0.00 in /  0 mm 0.0 W/m2 CLR
02:11 -0.9 °F /  -18.3 °C -5.8 °F /  -21 °C 30.23 in /  1023.6 hPa WNW 8.1 mph /  13 km/h 8.1 mph /  13 km/h 79 % 0.00 in /  0 mm 0.0 W/m2 CLR
02:13 -0.9 °F /  -18.3 °C -5.8 °F /  -21 °C 30.29 in /  1025.6 hPa WNW 8.1 mph /  13 km/h 8.1 mph /  13 km/h 79 % 0.00 in /  0 mm 0.0 W/m2 CLR
02:16 -0.9 °F /  -18.3 °C -5.8 °F /  -21 °C 30.23 in /  1023.6 hPa WNW 9.2 mph /  14.8 km/h 9.2 mph /  14.8 km/h 79 % 0.00 in /  0 mm 0.0 W/m2 CLR
02:18 -1.0 °F /  -18.3 °C -5.9 °F /  -21.1 °C 30.23 in /  1023.6 hPa WNW 5.8 mph /  9.3 km/h 5.8 mph /  9.3 km/h 79 % 0.00 in /  0 mm 0.0 W/m2 CLR
02:21 -1.0 °F /  -18.3 °C -5.9 °F /  -21.1 °C 30.23 in /  1023.6 hPa WNW 9.2 mph /  14.8 km/h 9.2 mph /  14.8 km/h 79 % 0.00 in /  0 mm 0.0 W/m2 CLR
02:26 -1.2 °F /  -18.4 °C -6.1 °F /  -21.2 °C 30.23 in /  1023.6 hPa WNW 9.2 mph /  14.8 km/h 9.2 mph /  14.8 km/h 79 % 0.00 in /  0 mm 0.0 W/m2 CLR
02:27 -1.2 °F /  -18.4 °C -6.1 °F /  -21.2 °C 30.23 in /  1023.6 hPa WNW 8.1 mph /  13 km/h 8.1 mph /  13 km/h 79 % 0.00 in /  0 mm 0.0 W/m2 CLR
02:28 -1.2 °F /  -18.4 °C -6.1 °F /  -21.2 °C 30.23 in /  1023.6 hPa NW 8.1 mph /  13 km/h 8.1 mph /  13 km/h 79 % 0.00 in /  0 mm 0.0 W/m2 CLR
02:32 -1.3 °F /  -18.5 °C -6.2 °F /  -21.2 °C 30.23 in /  1023.6 hPa WNW 10.4 mph /  16.7 km/h 10.4 mph /  16.7 km/h 79 % 0.00 in /  0 mm 0.0 W/m2 CLR
02:36 -1.3 °F /  -18.5 °C -6.2 °F /  -21.2 °C 30.23 in /  1023.6 hPa WNW 11.5 mph /  18.5 km/h 11.5 mph /  18.5 km/h 79 % 0.00 in /  0 mm 0.0 W/m2 CLR
02:40 -1.2 °F /  -18.4 °C -6.1 °F /  -21.2 °C 30.23 in /  1023.6 hPa WNW 9.2 mph /  14.8 km/h 9.2 mph /  14.8 km/h 79 % 0.00 in /  0 mm 0.0 W/m2 CLR
02:41 -1.2 °F /  -18.4 °C -6.1 °F /  -21.2 °C 30.23 in /  1023.6 hPa NW 9.2 mph /  14.8 km/h 9.2 mph /  14.8 km/h 79 % 0.00 in /  0 mm 0.0 W/m2 CLR
02:46 -1.3 °F /  -18.5 °C -6.2 °F /  -21.2 °C 30.23 in /  1023.6 hPa NW 9.2 mph /  14.8 km/h 9.2 mph /  14.8 km/h 79 % 0.00 in /  0 mm 0.0 W/m2 CLR
02:51 -1.3 °F /  -18.5 °C -6.2 °F /  -21.2 °C 30.24 in /  1023.9 hPa NW 8.0 mph /  12.9 km/h 8.0 mph /  12.9 km/h 79 % 0.00 in /  0 mm 0.0 W/m2 CLR
02:53 -1.4 °F /  -18.6 °C -6.3 °F /  -21.3 °C 30.24 in /  1023.9 hPa WNW 10.4 mph /  16.7 km/h 10.4 mph /  16.7 km/h 79 % 0.00 in /  0 mm 0.0 W/m2 CLR
02:57 -1.3 °F /  -18.5 °C -6.2 °F /  -21.2 °C 30.24 in /  1023.9 hPa NW 10.4 mph /  16.7 km/h 10.4 mph /  16.7 km/h 79 % 0.00 in /  0 mm 0.0 W/m2 CLR
02:59 -1.3 °F /  -18.5 °C -6.2 °F /  -21.2 °C 30.24 in /  1023.9 hPa WNW 11.5 mph /  18.5 km/h 11.5 mph /  18.5 km/h 79 % 0.00 in /  0 mm 0.0 W/m2 CLR
03:04 -1.5 °F /  -18.6 °C -6.4 °F /  -21.3 °C 30.24 in /  1023.9 hPa WNW 9.2 mph /  14.8 km/h 9.2 mph /  14.8 km/h 79 % 0.00 in /  0 mm 0.0 W/m2 CLR
03:09 -1.6 °F /  -18.7 °C -6.5 °F /  -21.4 °C 30.24 in /  1023.9 hPa WNW 11.5 mph /  18.5 km/h 11.5 mph /  18.5 km/h 79 % 0.00 in /  0 mm 0.0 W/m2 CLR
03:10 -1.7 °F /  -18.7 °C -6.6 °F /  -21.4 °C 30.24 in /  1023.9 hPa West 11.5 mph /  18.5 km/h 11.5 mph /  18.5 km/h 79 % 0.00 in /  0 mm 0.0 W/m2 CLR
03:13 -1.7 °F /  -18.7 °C -6.6 °F /  -21.4 °C 30.24 in /  1023.9 hPa WNW 10.4 mph /  16.7 km/h 10.4 mph /  16.7 km/h 79 % 0.00 in /  0 mm 0.0 W/m2 CLR
03:15 -1.7 °F /  -18.7 °C -6.6 °F /  -21.4 °C 30.24 in /  1023.9 hPa WNW 9.2 mph /  14.8 km/h 9.2 mph /  14.8 km/h 79 % 0.00 in /  0 mm 0.0 W/m2 CLR
03:20 -1.7 °F /  -18.7 °C -6.6 °F /  -21.4 °C 30.24 in /  1023.9 hPa NW 9.0 mph /  14.5 km/h 9.0 mph /  14.5 km/h 79 % 0.00 in /  0 mm 0.0 W/m2 CLR
03:21 -1.7 °F /  -18.7 °C -6.6 °F /  -21.4 °C 30.24 in /  1023.9 hPa WNW 9.2 mph /  14.8 km/h 9.2 mph /  14.8 km/h 79 % 0.00 in /  0 mm 0.0 W/m2 CLR
03:26 -1.6 °F /  -18.7 °C -6.3 °F /  -21.3 °C 30.24 in /  1023.9 hPa WNW 9.0 mph /  14.5 km/h 9.0 mph /  14.5 km/h 80 % 0.00 in /  0 mm 0.0 W/m2 CLR
03:29 -1.6 °F /  -18.7 °C -6.3 °F /  -21.3 °C 30.24 in /  1023.9 hPa WNW 7.0 mph /  11.3 km/h 7.0 mph /  11.3 km/h 80 % 0.00 in /  0 mm 0.0 W/m2 CLR
03:32 -1.6 °F /  -18.7 °C -6.5 °F /  -21.4 °C 30.24 in /  1023.9 hPa WNW 11.5 mph /  18.5 km/h 11.5 mph /  18.5 km/h 79 % 0.00 in /  0 mm 0.0 W/m2 CLR
03:35 -1.7 °F /  -18.7 °C -6.6 °F /  -21.4 °C 30.23 in /  1023.6 hPa NW 10.4 mph /  16.7 km/h 10.4 mph /  16.7 km/h 79 % 0.00 in /  0 mm 0.0 W/m2 CLR
03:37 -1.8 °F /  -18.8 °C -6.7 °F /  -21.5 °C 30.23 in /  1023.6 hPa WNW 11.5 mph /  18.5 km/h 11.5 mph /  18.5 km/h 79 % 0.00 in /  0 mm 0.0 W/m2 CLR
03:42 -1.8 °F /  -18.8 °C -6.7 °F /  -21.5 °C 30.24 in /  1023.9 hPa WNW 5.8 mph /  9.3 km/h 5.8 mph /  9.3 km/h 79 % 0.00 in /  0 mm 0.0 W/m2 CLR
03:47 -1.8 °F /  -18.8 °C -6.7 °F /  -21.5 °C 30.24 in /  1023.9 hPa WNW 9.2 mph /  14.8 km/h 9.2 mph /  14.8 km/h 79 % 0.00 in /  0 mm 0.0 W/m2 CLR
03:48 -1.8 °F /  -18.8 °C -6.7 °F /  -21.5 °C 30.24 in /  1023.9 hPa WNW 10.4 mph /  16.7 km/h 10.4 mph /  16.7 km/h 79 % 0.00 in /  0 mm 0.0 W/m2 CLR
03:51 -1.7 °F /  -18.7 °C -6.6 °F /  -21.4 °C 30.24 in /  1023.9 hPa WNW 6.9 mph /  11.1 km/h 6.9 mph /  11.1 km/h 79 % 0.00 in /  0 mm 0.0 W/m2 CLR
03:55 -1.8 °F /  -18.8 °C -6.7 °F /  -21.5 °C 30.24 in /  1023.9 hPa WNW 11.0 mph /  17.7 km/h 11.0 mph /  17.7 km/h 79 % 0.00 in /  0 mm 0.0 W/m2 CLR
03:56 -1.9 °F /  -18.8 °C -6.8 °F /  -21.6 °C 30.30 in /  1026 hPa WNW 11.5 mph /  18.5 km/h 11.5 mph /  18.5 km/h 79 % 0.00 in /  0 mm 0.0 W/m2 CLR
03:58 -1.9 °F /  -18.8 °C -6.8 °F /  -21.6 °C 30.24 in /  1023.9 hPa West 10.4 mph /  16.7 km/h 10.4 mph /  16.7 km/h 79 % 0.00 in /  0 mm 0.0 W/m2 CLR
04:02 -2.0 °F /  -18.9 °C -6.9 °F /  -21.6 °C 30.24 in /  1023.9 hPa West 11.5 mph /  18.5 km/h 11.5 mph /  18.5 km/h 79 % 0.00 in /  0 mm 0.0 W/m2 CLR
04:07 -2.3 °F /  -19.1 °C -7.2 °F /  -21.8 °C 30.24 in /  1023.9 hPa WNW 10.4 mph /  16.7 km/h 10.4 mph /  16.7 km/h 79 % 0.00 in /  0 mm 0.0 W/m2 CLR
04:09 -2.4 °F /  -19.1 °C -7.3 °F /  -21.8 °C 30.24 in /  1023.9 hPa WNW 9.2 mph /  14.8 km/h 9.2 mph /  14.8 km/h 79 % 0.00 in /  0 mm 0.0 W/m2 CLR
04:14 -2.5 °F /  -19.2 °C -7.4 °F /  -21.9 °C 30.23 in /  1023.6 hPa NW 10.4 mph /  16.7 km/h 10.4 mph /  16.7 km/h 79 % 0.00 in /  0 mm 0.0 W/m2 CLR
04:16 -2.5 °F /  -19.2 °C -7.4 °F /  -21.9 °C 30.23 in /  1023.6 hPa NW 10.4 mph /  16.7 km/h 10.4 mph /  16.7 km/h 79 % 0.00 in /  0 mm 0.0 W/m2 CLR
04:19 -2.4 °F /  -19.1 °C -7.1 °F /  -21.7 °C 30.24 in /  1023.9 hPa NW 10.4 mph /  16.7 km/h 10.4 mph /  16.7 km/h 80 % 0.00 in /  0 mm 0.0 W/m2 CLR
04:24 -2.4 °F /  -19.1 °C -7.1 °F /  -21.7 °C 30.24 in /  1023.9 hPa WNW 9.2 mph /  14.8 km/h 9.2 mph /  14.8 km/h 80 % 0.00 in /  0 mm 0.0 W/m2 CLR
04:25 -2.4 °F /  -19.1 °C -7.1 °F /  -21.7 °C 30.24 in /  1023.9 hPa WNW 9.2 mph /  14.8 km/h 9.2 mph /  14.8 km/h 80 % 0.00 in /  0 mm 0.0 W/m2 CLR
04:28 -2.4 °F /  -19.1 °C -7.1 °F /  -21.7 °C 30.24 in /  1023.9 hPa WNW 9.2 mph /  14.8 km/h 9.2 mph /  14.8 km/h 80 % 0.00 in /  0 mm 0.0 W/m2 CLR
04:32 -2.3 °F /  -19.1 °C -7.0 °F /  -21.7 °C 30.24 in /  1023.9 hPa West 9.2 mph /  14.8 km/h 9.2 mph /  14.8 km/h 80 % 0.00 in /  0 mm 0.0 W/m2 CLR
04:36 -2.3 °F /  -19.1 °C -7.0 °F /  -21.7 °C 30.24 in /  1023.9 hPa WNW 10.4 mph /  16.7 km/h 10.4 mph /  16.7 km/h 80 % 0.00 in /  0 mm 0.0 W/m2 CLR
04:41 -2.3 °F /  -19.1 °C -7.0 °F /  -21.7 °C 30.24 in /  1023.9 hPa WNW 9.2 mph /  14.8 km/h 9.2 mph /  14.8 km/h 80 % 0.00 in /  0 mm 0.0 W/m2 CLR
04:46 -2.3 °F /  -19.1 °C -7.2 °F /  -21.8 °C 30.24 in /  1023.9 hPa WNW 9.2 mph /  14.8 km/h 9.2 mph /  14.8 km/h 79 % 0.00 in /  0 mm 0.0 W/m2 CLR
04:47 -2.4 °F /  -19.1 °C -7.1 °F /  -21.7 °C 30.24 in /  1023.9 hPa NW 8.1 mph /  13 km/h 8.1 mph /  13 km/h 80 % 0.00 in /  0 mm 0.0 W/m2 CLR
04:49 -2.4 °F /  -19.1 °C -7.1 °F /  -21.7 °C 30.24 in /  1023.9 hPa NW 10.4 mph /  16.7 km/h 10.4 mph /  16.7 km/h 80 % 0.00 in /  0 mm 0.0 W/m2 CLR
04:52 -2.3 °F /  -19.1 °C -7.0 °F /  -21.7 °C 30.24 in /  1023.9 hPa WNW 11.5 mph /  18.5 km/h 11.5 mph /  18.5 km/h 80 % 0.00 in /  0 mm 0.0 W/m2 CLR
04:57 -2.3 °F /  -19.1 °C -7.0 °F /  -21.7 °C 30.24 in /  1023.9 hPa NW 9.2 mph /  14.8 km/h 9.2 mph /  14.8 km/h 80 % 0.00 in /  0 mm 0.0 W/m2 CLR
04:58 -2.3 °F /  -19.1 °C -7.0 °F /  -21.7 °C 30.24 in /  1023.9 hPa NW 11.5 mph /  18.5 km/h 11.5 mph /  18.5 km/h 80 % 0.00 in /  0 mm 0.0 W/m2 CLR
04:59 -2.3 °F /  -19.1 °C -7.0 °F /  -21.7 °C 30.24 in /  1023.9 hPa NW 11.5 mph /  18.5 km/h 11.5 mph /  18.5 km/h 80 % 0.00 in /  0 mm 0.0 W/m2 CLR
05:04 -2.3 °F /  -19.1 °C -7.0 °F /  -21.7 °C 30.24 in /  1023.9 hPa NW 11.5 mph /  18.5 km/h 11.5 mph /  18.5 km/h 80 % 0.00 in /  0 mm 0.0 W/m2 CLR
05:06 -2.4 °F /  -19.1 °C -7.1 °F /  -21.7 °C 30.24 in /  1023.9 hPa NW 10.4 mph /  16.7 km/h 10.4 mph /  16.7 km/h 80 % 0.00 in /  0 mm 0.0 W/m2 CLR
05:11 -2.4 °F /  -19.1 °C -7.1 °F /  -21.7 °C 30.24 in /  1023.9 hPa NW 10.4 mph /  16.7 km/h 10.4 mph /  16.7 km/h 80 % 0.00 in /  0 mm 0.0 W/m2 CLR
05:12 -2.4 °F /  -19.1 °C -7.1 °F /  -21.7 °C 30.24 in /  1023.9 hPa NW 6.9 mph /  11.1 km/h 6.9 mph /  11.1 km/h 80 % 0.00 in /  0 mm 0.0 W/m2 CLR
05:17 -2.3 °F /  -19.1 °C -7.0 °F /  -21.7 °C 30.24 in /  1023.9 hPa WNW 10.0 mph /  16.1 km/h 10.0 mph /  16.1 km/h 80 % 0.00 in /  0 mm 0.0 W/m2 CLR
05:19 -2.3 °F /  -19.1 °C -7.0 °F /  -21.7 °C 30.25 in /  1024.3 hPa WNW 8.1 mph /  13 km/h 8.1 mph /  13 km/h 80 % 0.00 in /  0 mm 0.0 W/m2 CLR
05:24 -2.6 °F /  -19.2 °C -7.5 °F /  -21.9 °C 30.25 in /  1024.3 hPa WNW 8.0 mph /  12.9 km/h 8.0 mph /  12.9 km/h 79 % 0.00 in /  0 mm 0.0 W/m2 CLR
05:26 -2.8 °F /  -19.3 °C -7.7 °F /  -22.1 °C 30.25 in /  1024.3 hPa WNW 9.2 mph /  14.8 km/h 9.2 mph /  14.8 km/h 79 % 0.00 in /  0 mm 0.0 W/m2 CLR
05:31 -3.2 °F /  -19.6 °C -8.1 °F /  -22.3 °C 30.25 in /  1024.3 hPa WNW 6.9 mph /  11.1 km/h 6.9 mph /  11.1 km/h 79 % 0.00 in /  0 mm 0.0 W/m2 CLR
05:33 -3.3 °F /  -19.6 °C -8.2 °F /  -22.3 °C 30.25 in /  1024.3 hPa NW 9.2 mph /  14.8 km/h 9.2 mph /  14.8 km/h 79 % 0.00 in /  0 mm 0.0 W/m2 CLR
05:36 -3.4 °F /  -19.7 °C -8.0 °F /  -22.2 °C 30.25 in /  1024.3 hPa West 8.1 mph /  13 km/h 8.1 mph /  13 km/h 80 % 0.00 in /  0 mm 0.0 W/m2 CLR
05:43 -3.5 °F /  -19.7 °C -8.1 °F /  -22.3 °C 30.25 in /  1024.3 hPa NW 5.8 mph /  9.3 km/h 5.8 mph /  9.3 km/h 80 % 0.00 in /  0 mm 0.0 W/m2 CLR
05:47 -3.6 °F /  -19.8 °C -8.2 °F /  -22.3 °C 30.25 in /  1024.3 hPa WNW 5.8 mph /  9.3 km/h 5.8 mph /  9.3 km/h 80 % 0.00 in /  0 mm 0.0 W/m2 CLR
05:49 -3.5 °F /  -19.7 °C -8.1 °F /  -22.3 °C 30.25 in /  1024.3 hPa NW 6.9 mph /  11.1 km/h 6.9 mph /  11.1 km/h 80 % 0.00 in /  0 mm 0.0 W/m2 CLR
05:54 -3.4 °F /  -19.7 °C -7.8 °F /  -22.1 °C 30.25 in /  1024.3 hPa WNW 6.9 mph /  11.1 km/h 6.9 mph /  11.1 km/h 81 % 0.00 in /  0 mm 0.0 W/m2 CLR
05:59 -3.2 °F /  -19.6 °C -7.6 °F /  -22 °C 30.25 in /  1024.3 hPa WNW 10.4 mph /  16.7 km/h 10.4 mph /  16.7 km/h 81 % 0.00 in /  0 mm 0.0 W/m2 CLR
06:02 -3.2 °F /  -19.6 °C -7.8 °F /  -22.1 °C 30.25 in /  1024.3 hPa West 8.1 mph /  13 km/h 8.1 mph /  13 km/h 80 % 0.00 in /  0 mm 0.0 W/m2 CLR
06:07 -3.5 °F /  -19.7 °C -8.1 °F /  -22.3 °C 30.26 in /  1024.6 hPa WNW 9.2 mph /  14.8 km/h 9.2 mph /  14.8 km/h 80 % 0.00 in /  0 mm 0.0 W/m2 CLR
06:09 -3.6 °F /  -19.8 °C -8.2 °F /  -22.3 °C 30.26 in /  1024.6 hPa WNW 8.1 mph /  13 km/h 8.1 mph /  13 km/h 80 % 0.00 in /  0 mm 0.0 W/m2 CLR
06:14 -3.8 °F /  -19.9 °C -8.4 °F /  -22.4 °C 30.26 in /  1024.6 hPa NW 9.2 mph /  14.8 km/h 9.2 mph /  14.8 km/h 80 % 0.00 in /  0 mm 0.0 W/m2 CLR
06:15 -3.9 °F /  -19.9 °C -8.5 °F /  -22.5 °C 30.26 in /  1024.6 hPa WNW 9.2 mph /  14.8 km/h 9.2 mph /  14.8 km/h 80 % 0.00 in /  0 mm 0.0 W/m2 CLR
06:16 -3.9 °F /  -19.9 °C -8.5 °F /  -22.5 °C 30.26 in /  1024.6 hPa West 8.1 mph /  13 km/h 8.1 mph /  13 km/h 80 % 0.00 in /  0 mm 0.0 W/m2 CLR
06:21 -4.1 °F /  -20.1 °C -8.7 °F /  -22.6 °C 30.27 in /  1024.9 hPa NW 9.2 mph /  14.8 km/h 9.2 mph /  14.8 km/h 80 % 0.00 in /  0 mm 0.0 W/m2 CLR
06:26 -4.1 °F /  -20.1 °C -8.5 °F /  -22.5 °C 30.27 in /  1024.9 hPa WNW 8.1 mph /  13 km/h 8.1 mph /  13 km/h 81 % 0.00 in /  0 mm 0.0 W/m2 CLR
06:31 -4.1 °F /  -20.1 °C -8.5 °F /  -22.5 °C 30.27 in /  1024.9 hPa WNW 10.4 mph /  16.7 km/h 10.4 mph /  16.7 km/h 81 % 0.00 in /  0 mm 0.0 W/m2 CLR
06:35 -4.1 °F /  -20.1 °C -8.5 °F /  -22.5 °C 30.27 in /  1024.9 hPa West 10.4 mph /  16.7 km/h 10.4 mph /  16.7 km/h 81 % 0.00 in /  0 mm 0.0 W/m2 CLR
06:37 -4.1 °F /  -20.1 °C -8.5 °F /  -22.5 °C 30.27 in /  1024.9 hPa NW 8.0 mph /  12.9 km/h 8.0 mph /  12.9 km/h 81 % 0.00 in /  0 mm 0.0 W/m2 CLR
06:38 -4.1 °F /  -20.1 °C -8.5 °F /  -22.5 °C 30.27 in /  1024.9 hPa NW 10.4 mph /  16.7 km/h 10.4 mph /  16.7 km/h 81 % 0.00 in /  0 mm 0.0 W/m2 CLR
06:42 -4.1 °F /  -20.1 °C -8.5 °F /  -22.5 °C 30.27 in /  1024.9 hPa WNW 9.2 mph /  14.8 km/h 9.2 mph /  14.8 km/h 81 % 0.00 in /  0 mm 0.0 W/m2 CLR
06:43 -4.1 °F /  -20.1 °C -8.5 °F /  -22.5 °C 30.27 in /  1024.9 hPa NW 10.4 mph /  16.7 km/h 10.4 mph /  16.7 km/h 81 % 0.00 in /  0 mm 0.0 W/m2 CLR
06:48 -4.1 °F /  -20.1 °C -8.5 °F /  -22.5 °C 30.34 in /  1027.3 hPa WNW 10.4 mph /  16.7 km/h 10.4 mph /  16.7 km/h 81 % 0.00 in /  0 mm 0.0 W/m2 CLR
06:50 -4.1 °F /  -20.1 °C -8.5 °F /  -22.5 °C 30.27 in /  1024.9 hPa WNW 11.5 mph /  18.5 km/h 11.5 mph /  18.5 km/h 81 % 0.00 in /  0 mm 0.0 W/m2 CLR
06:53 -4.1 °F /  -20.1 °C -8.5 °F /  -22.5 °C 30.33 in /  1027 hPa WNW 9.2 mph /  14.8 km/h 9.2 mph /  14.8 km/h 81 % 0.00 in /  0 mm 0.0 W/m2 CLR
06:54 -4.1 °F /  -20.1 °C -8.5 °F /  -22.5 °C 30.27 in /  1024.9 hPa WNW 11.5 mph /  18.5 km/h 11.5 mph /  18.5 km/h 81 % 0.00 in /  0 mm 0.0 W/m2 CLR
06:59 -4.1 °F /  -20.1 °C -8.5 °F /  -22.5 °C 30.27 in /  1024.9 hPa WNW 11.5 mph /  18.5 km/h 11.5 mph /  18.5 km/h 81 % 0.00 in /  0 mm 0.0 W/m2 CLR
07:03 -4.2 °F /  -20.1 °C -8.6 °F /  -22.6 °C 30.27 in /  1024.9 hPa WNW 9.2 mph /  14.8 km/h 9.2 mph /  14.8 km/h 81 % 0.00 in /  0 mm 0.0 W/m2 CLR
07:08 -4.3 °F /  -20.2 °C -8.7 °F /  -22.6 °C 30.28 in /  1025.3 hPa West 9.0 mph /  14.5 km/h 9.0 mph /  14.5 km/h 81 % 0.00 in /  0 mm 0.0 W/m2 CLR
07:09 -4.4 °F /  -20.2 °C -8.8 °F /  -22.7 °C 30.28 in /  1025.3 hPa WNW 10.4 mph /  16.7 km/h 10.4 mph /  16.7 km/h 81 % 0.00 in /  0 mm 0.0 W/m2 CLR
07:10 -4.4 °F /  -20.2 °C -8.8 °F /  -22.7 °C 30.27 in /  1024.9 hPa WNW 11.5 mph /  18.5 km/h 11.5 mph /  18.5 km/h 81 % 0.00 in /  0 mm 0.0 W/m2 CLR
07:12 -4.4 °F /  -20.2 °C -8.8 °F /  -22.7 °C 30.27 in /  1024.9 hPa WNW 11.5 mph /  18.5 km/h 11.5 mph /  18.5 km/h 81 % 0.00 in /  0 mm 0.0 W/m2 CLR
07:16 -4.5 °F /  -20.3 °C -8.8 °F /  -22.7 °C 30.28 in /  1025.3 hPa WNW 8.0 mph /  12.9 km/h 8.0 mph /  12.9 km/h 81 % 0.00 in /  0 mm 5.0 W/m2 CLR
07:21 -4.7 °F /  -20.4 °C -9.0 °F /  -22.8 °C 30.28 in /  1025.3 hPa WNW 8.1 mph /  13 km/h 8.1 mph /  13 km/h 81 % 0.00 in /  0 mm 7.0 W/m2 CLR
07:22 -4.7 °F /  -20.4 °C -9.0 °F /  -22.8 °C 30.28 in /  1025.3 hPa WNW 8.1 mph /  13 km/h 8.1 mph /  13 km/h 81 % 0.00 in /  0 mm 7.0 W/m2 CLR
07:27 -4.8 °F /  -20.4 °C -9.1 °F /  -22.8 °C 30.28 in /  1025.3 hPa NW 9.2 mph /  14.8 km/h 9.2 mph /  14.8 km/h 81 % 0.00 in /  0 mm 11.0 W/m2 CLR
07:28 -4.8 °F /  -20.4 °C -9.1 °F /  -22.8 °C 30.28 in /  1025.3 hPa WNW 9.2 mph /  14.8 km/h 9.2 mph /  14.8 km/h 81 % 0.00 in /  0 mm 11.0 W/m2 CLR
07:33 -4.8 °F /  -20.4 °C -9.1 °F /  -22.8 °C 30.28 in /  1025.3 hPa WNW 8.1 mph /  13 km/h 8.1 mph /  13 km/h 81 % 0.00 in /  0 mm 12.0 W/m2 -SN
07:34 -4.8 °F /  -20.4 °C -9.1 °F /  -22.8 °C 30.28 in /  1025.3 hPa WNW 8.1 mph /  13 km/h 8.1 mph /  13 km/h 81 % 0.00 in /  0 mm 14.0 W/m2 -SN
07:39 -4.8 °F /  -20.4 °C -9.1 °F /  -22.8 °C 30.28 in /  1025.3 hPa WNW 9.2 mph /  14.8 km/h 9.2 mph /  14.8 km/h 81 % 0.00 in /  0 mm 19.0 W/m2 -SN
07:40 -4.8 °F /  -20.4 °C -9.1 °F /  -22.8 °C 30.28 in /  1025.3 hPa NW 9.2 mph /  14.8 km/h 9.2 mph /  14.8 km/h 81 % 0.00 in /  0 mm 23.0 W/m2 -SN
07:41 -4.7 °F /  -20.4 °C -9.0 °F /  -22.8 °C 30.34 in /  1027.3 hPa WNW 9.2 mph /  14.8 km/h 9.2 mph /  14.8 km/h 81 % 0.00 in /  0 mm 25.0 W/m2 -SN
07:42 -4.8 °F /  -20.4 °C -9.1 °F /  -22.8 °C 30.28 in /  1025.3 hPa WNW 6.9 mph /  11.1 km/h 6.9 mph /  11.1 km/h 81 % 0.00 in /  0 mm 26.0 W/m2 -SN
07:47 -4.7 °F /  -20.4 °C -9.0 °F /  -22.8 °C 30.28 in /  1025.3 hPa WNW 5.8 mph /  9.3 km/h 5.8 mph /  9.3 km/h 81 % 0.00 in /  0 mm 40.0 W/m2 -SN
07:52 -4.6 °F /  -20.3 °C -8.9 °F /  -22.7 °C 30.28 in /  1025.3 hPa WNW 5.0 mph /  8 km/h 5.0 mph /  8 km/h 81 % 0.00 in /  0 mm 46.0 W/m2 -SN
07:57 -4.3 °F /  -20.2 °C -8.7 °F /  -22.6 °C 30.28 in /  1025.3 hPa WNW 10.4 mph /  16.7 km/h 10.4 mph /  16.7 km/h 81 % 0.00 in /  0 mm 65.0 W/m2 -SN
08:02 -4.2 °F /  -20.1 °C -8.6 °F /  -22.6 °C 30.28 in /  1025.3 hPa WNW 10.0 mph /  16.1 km/h 10.0 mph /  16.1 km/h 81 % 0.00 in /  0 mm 77.0 W/m2 CLR
08:07 -4.2 °F /  -20.1 °C -8.8 °F /  -22.7 °C 30.29 in /  1025.6 hPa WNW 10.4 mph /  16.7 km/h 10.4 mph /  16.7 km/h 80 % 0.00 in /  0 mm 93.0 W/m2 CLR
08:13 -4.2 °F /  -20.1 °C -8.8 °F /  -22.7 °C 30.29 in /  1025.6 hPa NW 8.1 mph /  13 km/h 8.1 mph /  13 km/h 80 % 0.00 in /  0 mm 107.0 W/m2 CLR
08:15 -4.2 °F /  -20.1 °C -8.8 °F /  -22.7 °C 30.35 in /  1027.7 hPa WNW 8.1 mph /  13 km/h 8.1 mph /  13 km/h 80 % 0.00 in /  0 mm 114.0 W/m2 CLR
08:19 -4.2 °F /  -20.1 °C -8.8 °F /  -22.7 °C 30.29 in /  1025.6 hPa NW 9.2 mph /  14.8 km/h 9.2 mph /  14.8 km/h 80 % 0.00 in /  0 mm 125.0 W/m2 CLR
08:24 -4.1 °F /  -20.1 °C -8.7 °F /  -22.6 °C 30.29 in /  1025.6 hPa NW 9.2 mph /  14.8 km/h 9.2 mph /  14.8 km/h 80 % 0.00 in /  0 mm 139.0 W/m2 CLR
08:25 -4.0 °F /  -20 °C -8.6 °F /  -22.6 °C 30.29 in /  1025.6 hPa NW 10.4 mph /  16.7 km/h 10.4 mph /  16.7 km/h 80 % 0.00 in /  0 mm 142.0 W/m2 CLR
08:26 -3.9 °F /  -19.9 °C -8.5 °F /  -22.5 °C 30.29 in /  1025.6 hPa NW 8.1 mph /  13 km/h 8.1 mph /  13 km/h 80 % 0.00 in /  0 mm 146.0 W/m2 CLR
08:31 -3.8 °F /  -19.9 °C -8.4 °F /  -22.4 °C 30.29 in /  1025.6 hPa NW 9.2 mph /  14.8 km/h 9.2 mph /  14.8 km/h 80 % 0.00 in /  0 mm 162.0 W/m2 CLR
08:34 -3.6 °F /  -19.8 °C -8.2 °F /  -22.3 °C 30.29 in /  1025.6 hPa NW 11.5 mph /  18.5 km/h 11.5 mph /  18.5 km/h 80 % 0.00 in /  0 mm 174.0 W/m2 CLR
08:39 -3.6 °F /  -19.8 °C -8.2 °F /  -22.3 °C 30.29 in /  1025.6 hPa NW 11.5 mph /  18.5 km/h 11.5 mph /  18.5 km/h 80 % 0.00 in /  0 mm 190.0 W/m2 CLR
08:44 -3.5 °F /  -19.7 °C -8.1 °F /  -22.3 °C 30.29 in /  1025.6 hPa NW 11.5 mph /  18.5 km/h 11.5 mph /  18.5 km/h 80 % 0.00 in /  0 mm 206.0 W/m2 CLR
08:46 -3.5 °F /  -19.7 °C -8.1 °F /  -22.3 °C 30.29 in /  1025.6 hPa NW 11.5 mph /  18.5 km/h 11.5 mph /  18.5 km/h 80 % 0.00 in /  0 mm 211.0 W/m2 CLR
08:48 -3.3 °F /  -19.6 °C -7.9 °F /  -22.2 °C 30.29 in /  1025.6 hPa WNW 10.4 mph /  16.7 km/h 10.4 mph /  16.7 km/h 80 % 0.00 in /  0 mm 216.0 W/m2 CLR
08:51 -3.1 °F /  -19.5 °C -7.7 °F /  -22.1 °C 30.30 in /  1026 hPa WNW 8.1 mph /  13 km/h 8.1 mph /  13 km/h 80 % 0.00 in /  0 mm 225.0 W/m2 CLR
08:52 -3.1 °F /  -19.5 °C -7.7 °F /  -22.1 °C 30.30 in /  1026 hPa NW 9.2 mph /  14.8 km/h 9.2 mph /  14.8 km/h 80 % 0.00 in /  0 mm 225.0 W/m2 CLR
08:54 -3.0 °F /  -19.4 °C -7.6 °F /  -22 °C 30.30 in /  1026 hPa WNW 8.1 mph /  13 km/h 8.1 mph /  13 km/h 80 % 0.00 in /  0 mm 234.0 W/m2 CLR
08:57 -3.0 °F /  -19.4 °C -7.9 °F /  -22.2 °C 30.30 in /  1026 hPa NW 6.9 mph /  11.1 km/h 6.9 mph /  11.1 km/h 79 % 0.00 in /  0 mm 243.0 W/m2 CLR
09:02 -2.8 °F /  -19.3 °C -7.7 °F /  -22.1 °C 30.30 in /  1026 hPa WNW 8.1 mph /  13 km/h 8.1 mph /  13 km/h 79 % 0.00 in /  0 mm 258.0 W/m2 CLR
09:07 -2.8 °F /  -19.3 °C -7.7 °F /  -22.1 °C 30.30 in /  1026 hPa WNW 10.4 mph /  16.7 km/h 10.4 mph /  16.7 km/h 79 % 0.00 in /  0 mm 271.0 W/m2 CLR
09:12 -2.6 °F /  -19.2 °C -7.5 °F /  -21.9 °C 30.30 in /  1026 hPa NW 6.9 mph /  11.1 km/h 6.9 mph /  11.1 km/h 79 % 0.00 in /  0 mm 281.0 W/m2 CLR
09:17 -2.5 °F /  -19.2 °C -7.4 °F /  -21.9 °C 30.30 in /  1026 hPa NW 10.4 mph /  16.7 km/h 10.4 mph /  16.7 km/h 79 % 0.00 in /  0 mm 292.0 W/m2 CLR
09:18 -2.5 °F /  -19.2 °C -7.4 °F /  -21.9 °C 30.30 in /  1026 hPa NW 8.1 mph /  13 km/h 8.1 mph /  13 km/h 79 % 0.00 in /  0 mm 297.0 W/m2 CLR
09:23 -2.2 °F /  -19 °C -7.1 °F /  -21.7 °C 30.31 in /  1026.3 hPa NW 10.4 mph /  16.7 km/h 10.4 mph /  16.7 km/h 79 % 0.00 in /  0 mm 306.0 W/m2 CLR
09:25 -2.2 °F /  -19 °C -7.1 °F /  -21.7 °C 30.37 in /  1028.3 hPa NW 12.0 mph /  19.3 km/h 12.0 mph /  19.3 km/h 79 % 0.00 in /  0 mm 309.0 W/m2 CLR
09:28 -2.1 °F /  -18.9 °C -7.0 °F /  -21.7 °C 30.31 in /  1026.3 hPa NW 11.5 mph /  18.5 km/h 11.5 mph /  18.5 km/h 79 % 0.00 in /  0 mm 315.0 W/m2 CLR
09:29 -2.1 °F /  -18.9 °C -7.0 °F /  -21.7 °C 30.31 in /  1026.3 hPa WNW 11.0 mph /  17.7 km/h 11.0 mph /  17.7 km/h 79 % 0.00 in /  0 mm 316.0 W/m2 CLR
09:30 -2.0 °F /  -18.9 °C -6.9 °F /  -21.6 °C 30.31 in /  1026.3 hPa WNW 11.5 mph /  18.5 km/h 11.5 mph /  18.5 km/h 79 % 0.00 in /  0 mm 318.0 W/m2 CLR
09:35 -1.7 °F /  -18.7 °C -6.9 °F /  -21.6 °C 30.31 in /  1026.3 hPa WNW 12.0 mph /  19.3 km/h 12.0 mph /  19.3 km/h 78 % 0.00 in /  0 mm 329.0 W/m2 CLR
09:40 -1.4 °F /  -18.6 °C -6.6 °F /  -21.4 °C 30.31 in /  1026.3 hPa NW 10.4 mph /  16.7 km/h 10.4 mph /  16.7 km/h 78 % 0.00 in /  0 mm 338.0 W/m2 CLR
09:44 -1.2 °F /  -18.4 °C -6.4 °F /  -21.3 °C 30.38 in /  1028.7 hPa WNW 10.4 mph /  16.7 km/h 10.4 mph /  16.7 km/h 78 % 0.00 in /  0 mm 345.0 W/m2 CLR
09:45 -1.1 °F /  -18.4 °C -6.3 °F /  -21.3 °C 30.31 in /  1026.3 hPa West 11.5 mph /  18.5 km/h 11.5 mph /  18.5 km/h 78 % 0.00 in /  0 mm 345.0 W/m2 CLR
09:49 -0.9 °F /  -18.3 °C -6.1 °F /  -21.2 °C 30.32 in /  1026.6 hPa WNW 11.5 mph /  18.5 km/h 11.5 mph /  18.5 km/h 78 % 0.00 in /  0 mm 352.0 W/m2 CLR
09:50 -0.9 °F /  -18.3 °C -6.1 °F /  -21.2 °C 30.38 in /  1028.7 hPa WNW 8.1 mph /  13 km/h 8.1 mph /  13 km/h 78 % 0.00 in /  0 mm 353.0 W/m2 CLR
09:54 -0.7 °F /  -18.2 °C -5.9 °F /  -21.1 °C 30.32 in /  1026.6 hPa WNW 9.2 mph /  14.8 km/h 9.2 mph /  14.8 km/h 78 % 0.00 in /  0 mm 359.0 W/m2 CLR
09:59 -0.5 °F /  -18.1 °C -6.0 °F /  -21.1 °C 30.32 in /  1026.6 hPa WNW 11.5 mph /  18.5 km/h 11.5 mph /  18.5 km/h 77 % 0.00 in /  0 mm 367.0 W/m2 CLR
10:04 -0.3 °F /  -17.9 °C -5.8 °F /  -21 °C 30.32 in /  1026.6 hPa NW 11.5 mph /  18.5 km/h 11.5 mph /  18.5 km/h 77 % 0.00 in /  0 mm 376.0 W/m2 CLR
10:09 0.0 °F /  -17.8 °C -5.5 °F /  -20.8 °C 30.32 in /  1026.6 hPa WNW 10.4 mph /  16.7 km/h 10.4 mph /  16.7 km/h 77 % 0.00 in /  0 mm 383.0 W/m2 CLR
10:10 0.0 °F /  -17.8 °C -5.5 °F /  -20.8 °C 30.32 in /  1026.6 hPa NW 10.4 mph /  16.7 km/h 10.4 mph /  16.7 km/h 77 % 0.00 in /  0 mm 385.0 W/m2 CLR
10:11 0.1 °F /  -17.7 °C -5.4 °F /  -20.8 °C 30.32 in /  1026.6 hPa WNW 11.5 mph /  18.5 km/h 11.5 mph /  18.5 km/h 77 % 0.00 in /  0 mm 387.0 W/m2 CLR
10:16 0.3 °F /  -17.6 °C -5.2 °F /  -20.7 °C 30.32 in /  1026.6 hPa NW 10.4 mph /  16.7 km/h 10.4 mph /  16.7 km/h 77 % 0.00 in /  0 mm 396.0 W/m2 CLR
10:18 0.5 °F /  -17.5 °C -5.0 °F /  -20.6 °C 30.31 in /  1026.3 hPa NW 10.4 mph /  16.7 km/h 10.4 mph /  16.7 km/h 77 % 0.00 in /  0 mm 397.0 W/m2 CLR
10:23 0.9 °F /  -17.3 °C -4.6 °F /  -20.3 °C 30.32 in /  1026.6 hPa NW 12.7 mph /  20.4 km/h 12.7 mph /  20.4 km/h 77 % 0.00 in /  0 mm 406.0 W/m2 CLR
10:26 1.0 °F /  -17.2 °C -4.5 °F /  -20.3 °C 30.31 in /  1026.3 hPa NW 12.0 mph /  19.3 km/h 12.0 mph /  19.3 km/h 77 % 0.00 in /  0 mm 408.0 W/m2 CLR
10:31 1.3 °F /  -17.1 °C -4.5 °F /  -20.3 °C 30.31 in /  1026.3 hPa NW 10.4 mph /  16.7 km/h 10.4 mph /  16.7 km/h 76 % 0.00 in /  0 mm 415.0 W/m2 CLR
10:36 1.6 °F /  -16.9 °C -4.2 °F /  -20.1 °C 30.31 in /  1026.3 hPa NW 11.5 mph /  18.5 km/h 11.5 mph /  18.5 km/h 76 % 0.00 in /  0 mm 424.0 W/m2 CLR
10:38 1.7 °F /  -16.8 °C -4.1 °F /  -20.1 °C 30.31 in /  1026.3 hPa WNW 11.5 mph /  18.5 km/h 11.5 mph /  18.5 km/h 76 % 0.00 in /  0 mm 425.0 W/m2 CLR
10:42 1.9 °F /  -16.7 °C -3.9 °F /  -19.9 °C 30.31 in /  1026.3 hPa WNW 10.4 mph /  16.7 km/h 10.4 mph /  16.7 km/h 76 % 0.00 in /  0 mm 431.0 W/m2 CLR
10:44 2.0 °F /  -16.7 °C -3.8 °F /  -19.9 °C 30.31 in /  1026.3 hPa WNW 10.4 mph /  16.7 km/h 10.4 mph /  16.7 km/h 76 % 0.00 in /  0 mm 432.0 W/m2 CLR
10:49 2.2 °F /  -16.6 °C -3.6 °F /  -19.8 °C 30.31 in /  1026.3 hPa NW 13.8 mph /  22.2 km/h 13.8 mph /  22.2 km/h 76 % 0.00 in /  0 mm 438.0 W/m2 CLR
10:53 2.3 °F /  -16.5 °C -3.8 °F /  -19.9 °C 30.30 in /  1026 hPa NW 11.5 mph /  18.5 km/h 11.5 mph /  18.5 km/h 75 % 0.00 in /  0 mm 441.0 W/m2 CLR
10:57 2.5 °F /  -16.4 °C -3.6 °F /  -19.8 °C 30.37 in /  1028.3 hPa NW 11.5 mph /  18.5 km/h 11.5 mph /  18.5 km/h 75 % 0.00 in /  0 mm 446.0 W/m2 CLR
10:58 2.5 °F /  -16.4 °C -3.6 °F /  -19.8 °C 30.30 in /  1026 hPa WNW 10.4 mph /  16.7 km/h 10.4 mph /  16.7 km/h 75 % 0.00 in /  0 mm 446.0 W/m2 CLR
11:03 2.7 °F /  -16.3 °C -3.4 °F /  -19.7 °C 30.30 in /  1026 hPa NW 10.4 mph /  16.7 km/h 10.4 mph /  16.7 km/h 75 % 0.00 in /  0 mm 454.0 W/m2 CLR
11:05 2.8 °F /  -16.2 °C -3.3 °F /  -19.6 °C 30.30 in /  1026 hPa WNW 10.4 mph /  16.7 km/h 10.4 mph /  16.7 km/h 75 % 0.00 in /  0 mm 454.0 W/m2 CLR
11:10 3.1 °F /  -16.1 °C -3.0 °F /  -19.4 °C 30.30 in /  1026 hPa NW 10.4 mph /  16.7 km/h 10.4 mph /  16.7 km/h 75 % 0.00 in /  0 mm 457.0 W/m2 CLR
11:12 3.2 °F /  -16 °C -2.9 °F /  -19.4 °C 30.30 in /  1026 hPa NW 12.7 mph /  20.4 km/h 12.7 mph /  20.4 km/h 75 % 0.00 in /  0 mm 459.0 W/m2 CLR
11:17 3.4 °F /  -15.9 °C -3.0 °F /  -19.4 °C 30.30 in /  1026 hPa NW 12.7 mph /  20.4 km/h 12.7 mph /  20.4 km/h 74 % 0.00 in /  0 mm 462.0 W/m2 CLR
11:20 3.5 °F /  -15.8 °C -2.9 °F /  -19.4 °C 30.30 in /  1026 hPa WNW 10.4 mph /  16.7 km/h 10.4 mph /  16.7 km/h 74 % 0.00 in /  0 mm 466.0 W/m2 CLR
11:24 3.6 °F /  -15.8 °C -2.8 °F /  -19.3 °C 30.29 in /  1025.6 hPa NW 11.5 mph /  18.5 km/h 11.5 mph /  18.5 km/h 74 % 0.00 in /  0 mm 466.0 W/m2 CLR
11:29 4.0 °F /  -15.6 °C -2.4 °F /  -19.1 °C 30.29 in /  1025.6 hPa WNW 11.5 mph /  18.5 km/h 11.5 mph /  18.5 km/h 74 % 0.00 in /  0 mm 468.0 W/m2 CLR
11:31 4.0 °F /  -15.6 °C -2.4 °F /  -19.1 °C 30.36 in /  1028 hPa NW 12.7 mph /  20.4 km/h 12.7 mph /  20.4 km/h 74 % 0.00 in /  0 mm 469.0 W/m2 CLR
11:34 4.1 °F /  -15.5 °C -2.6 °F /  -19.2 °C 30.29 in /  1025.6 hPa WNW 6.9 mph /  11.1 km/h 6.9 mph /  11.1 km/h 73 % 0.00 in /  0 mm 469.0 W/m2 CLR
11:39 4.5 °F /  -15.3 °C -2.3 °F /  -19.1 °C 30.29 in /  1025.6 hPa NW 5.8 mph /  9.3 km/h 5.8 mph /  9.3 km/h 73 % 0.00 in /  0 mm 473.0 W/m2 CLR
11:42 4.7 °F /  -15.2 °C -2.1 °F /  -18.9 °C 30.29 in /  1025.6 hPa NW 10.4 mph /  16.7 km/h 10.4 mph /  16.7 km/h 73 % 0.00 in /  0 mm 475.0 W/m2 CLR
11:47 4.9 °F /  -15.1 °C -2.2 °F /  -19 °C 30.29 in /  1025.6 hPa NW 9.2 mph /  14.8 km/h 9.2 mph /  14.8 km/h 72 % 0.00 in /  0 mm 476.0 W/m2 CLR
11:52 5.2 °F /  -14.9 °C -1.9 °F /  -18.8 °C 30.29 in /  1025.6 hPa NW 6.9 mph /  11.1 km/h 6.9 mph /  11.1 km/h 72 % 0.00 in /  0 mm 476.0 W/m2 CLR
11:56 5.4 °F /  -14.8 °C -1.7 °F /  -18.7 °C 30.29 in /  1025.6 hPa NW 5.8 mph /  9.3 km/h 5.8 mph /  9.3 km/h 72 % 0.00 in /  0 mm 476.0 W/m2 CLR
11:59 5.5 °F /  -14.7 °C -1.6 °F /  -18.7 °C 30.29 in /  1025.6 hPa NW 8.1 mph /  13 km/h 8.1 mph /  13 km/h 72 % 0.00 in /  0 mm 476.0 W/m2 CLR
12:04 5.8 °F /  -14.6 °C -1.6 °F /  -18.7 °C 30.29 in /  1025.6 hPa NW 11.5 mph /  18.5 km/h 11.5 mph /  18.5 km/h 71 % 0.00 in /  0 mm 476.0 W/m2 CLR
12:09 6.0 °F /  -14.4 °C -1.4 °F /  -18.6 °C 30.29 in /  1025.6 hPa NW 13.8 mph /  22.2 km/h 13.8 mph /  22.2 km/h 71 % 0.00 in /  0 mm 476.0 W/m2 CLR
12:14 6.3 °F /  -14.3 °C -1.1 °F /  -18.4 °C 30.29 in /  1025.6 hPa NW 11.5 mph /  18.5 km/h 11.5 mph /  18.5 km/h 71 % 0.00 in /  0 mm 475.0 W/m2 CLR
12:17 6.3 °F /  -14.3 °C -1.4 °F /  -18.6 °C 30.29 in /  1025.6 hPa NW 11.5 mph /  18.5 km/h 11.5 mph /  18.5 km/h 70 % 0.00 in /  0 mm 475.0 W/m2 CLR
12:22 6.5 °F /  -14.2 °C -1.2 °F /  -18.4 °C 30.29 in /  1025.6 hPa WNW 6.9 mph /  11.1 km/h 6.9 mph /  11.1 km/h 70 % 0.00 in /  0 mm 471.0 W/m2 CLR
12:23 6.7 °F /  -14.1 °C -0.7 °F /  -18.2 °C 30.29 in /  1025.6 hPa WNW 8.1 mph /  13 km/h 8.1 mph /  13 km/h 71 % 0.00 in /  0 mm 471.0 W/m2 CLR
12:27 6.9 °F /  -13.9 °C -0.8 °F /  -18.2 °C 30.29 in /  1025.6 hPa WNW 10.4 mph /  16.7 km/h 10.4 mph /  16.7 km/h 70 % 0.00 in /  0 mm 469.0 W/m2 CLR
12:29 7.1 °F /  -13.8 °C -0.6 °F /  -18.1 °C 30.29 in /  1025.6 hPa NW 8.1 mph /  13 km/h 8.1 mph /  13 km/h 70 % 0.00 in /  0 mm 468.0 W/m2 CLR
12:34 7.3 °F /  -13.7 °C -0.4 °F /  -18 °C 30.29 in /  1025.6 hPa WNW 8.1 mph /  13 km/h 8.1 mph /  13 km/h 70 % 0.00 in /  0 mm 464.0 W/m2 CLR
12:38 7.4 °F /  -13.7 °C -0.3 °F /  -17.9 °C 30.29 in /  1025.6 hPa WNW 5.8 mph /  9.3 km/h 5.8 mph /  9.3 km/h 70 % 0.00 in /  0 mm 462.0 W/m2 CLR
12:39 7.5 °F /  -13.6 °C -0.6 °F /  -18.1 °C 30.29 in /  1025.6 hPa WNW 9.2 mph /  14.8 km/h 9.2 mph /  14.8 km/h 69 % 0.00 in /  0 mm 462.0 W/m2 CLR
12:43 7.5 °F /  -13.6 °C -0.9 °F /  -18.3 °C 30.29 in /  1025.6 hPa NW 11.5 mph /  18.5 km/h 11.5 mph /  18.5 km/h 68 % 0.00 in /  0 mm 459.0 W/m2 CLR
12:45 7.5 °F /  -13.6 °C -0.9 °F /  -18.3 °C 30.29 in /  1025.6 hPa NW 6.9 mph /  11.1 km/h 6.9 mph /  11.1 km/h 68 % 0.00 in /  0 mm 457.0 W/m2 CLR
12:50 7.6 °F /  -13.6 °C -0.8 °F /  -18.2 °C 30.28 in /  1025.3 hPa WNW 11.5 mph /  18.5 km/h 11.5 mph /  18.5 km/h 68 % 0.00 in /  0 mm 452.0 W/m2 CLR
12:51 7.6 °F /  -13.6 °C -0.8 °F /  -18.2 °C 30.28 in /  1025.3 hPa WNW 11.5 mph /  18.5 km/h 11.5 mph /  18.5 km/h 68 % 0.00 in /  0 mm 452.0 W/m2 CLR
12:52 7.6 °F /  -13.6 °C -0.8 °F /  -18.2 °C 30.28 in /  1025.3 hPa NW 10.4 mph /  16.7 km/h 10.4 mph /  16.7 km/h 68 % 0.00 in /  0 mm 450.0 W/m2 CLR
12:56 7.6 °F /  -13.6 °C -0.8 °F /  -18.2 °C 30.28 in /  1025.3 hPa WNW 11.5 mph /  18.5 km/h 11.5 mph /  18.5 km/h 68 % 0.00 in /  0 mm 448.0 W/m2 CLR
13:01 7.5 °F /  -13.6 °C -0.9 °F /  -18.3 °C 30.28 in /  1025.3 hPa WNW 11.5 mph /  18.5 km/h 11.5 mph /  18.5 km/h 68 % 0.00 in /  0 mm 443.0 W/m2 CLR
13:06 7.6 °F /  -13.6 °C -0.5 °F /  -18.1 °C 30.28 in /  1025.3 hPa NW 9.2 mph /  14.8 km/h 9.2 mph /  14.8 km/h 69 % 0.00 in /  0 mm 438.0 W/m2 CLR
13:07 7.6 °F /  -13.6 °C -0.5 °F /  -18.1 °C 30.28 in /  1025.3 hPa WNW 9.2 mph /  14.8 km/h 9.2 mph /  14.8 km/h 69 % 0.00 in /  0 mm 436.0 W/m2 CLR
13:12 7.7 °F /  -13.5 °C -0.7 °F /  -18.2 °C 30.28 in /  1025.3 hPa WSW 9.2 mph /  14.8 km/h 9.2 mph /  14.8 km/h 68 % 0.00 in /  0 mm 431.0 W/m2 CLR
13:13 7.8 °F /  -13.4 °C -0.6 °F /  -18.1 °C 30.28 in /  1025.3 hPa West 9.2 mph /  14.8 km/h 9.2 mph /  14.8 km/h 68 % 0.00 in /  0 mm 429.0 W/m2 CLR
13:18 7.9 °F /  -13.4 °C -0.5 °F /  -18.1 °C 30.35 in /  1027.7 hPa WNW 9.2 mph /  14.8 km/h 9.2 mph /  14.8 km/h 68 % 0.00 in /  0 mm 422.0 W/m2 CLR
13:19 7.9 °F /  -13.4 °C -0.5 °F /  -18.1 °C 30.28 in /  1025.3 hPa WNW 11.5 mph /  18.5 km/h 11.5 mph /  18.5 km/h 68 % 0.00 in /  0 mm 422.0 W/m2 CLR
13:24 7.9 °F /  -13.4 °C -0.5 °F /  -18.1 °C 30.28 in /  1025.3 hPa West 11.5 mph /  18.5 km/h 11.5 mph /  18.5 km/h 68 % 0.00 in /  0 mm 415.0 W/m2 CLR
13:29 8.0 °F /  -13.3 °C -0.1 °F /  -17.8 °C 30.29 in /  1025.6 hPa West 8.1 mph /  13 km/h 8.1 mph /  13 km/h 69 % 0.00 in /  0 mm 408.0 W/m2 CLR
13:30 8.0 °F /  -13.3 °C -0.1 °F /  -17.8 °C 30.35 in /  1027.7 hPa WNW 10.0 mph /  16.1 km/h 10.0 mph /  16.1 km/h 69 % 0.00 in /  0 mm 408.0 W/m2 CLR
13:31 8.0 °F /  -13.3 °C -0.4 °F /  -18 °C 30.29 in /  1025.6 hPa WNW 11.5 mph /  18.5 km/h 11.5 mph /  18.5 km/h 68 % 0.00 in /  0 mm 406.0 W/m2 CLR
13:34 8.1 °F /  -13.3 °C -0.3 °F /  -17.9 °C 30.29 in /  1025.6 hPa West 2.3 mph /  3.7 km/h 4.3 mph /  6.9 km/h 68 % 0.00 in /  0 mm 401.0 W/m2 CLR
13:37 8.0 °F /  -13.3 °C -0.4 °F /  -18 °C 30.29 in /  1025.6 hPa West 11.5 mph /  18.5 km/h 11.5 mph /  18.5 km/h 68 % 0.00 in /  0 mm 396.0 W/m2 CLR
13:42 7.8 °F /  -13.4 °C -0.9 °F /  -18.3 °C 30.29 in /  1025.6 hPa WNW 11.5 mph /  18.5 km/h 11.5 mph /  18.5 km/h 67 % 0.00 in /  0 mm 388.0 W/m2 CLR
13:43 7.8 °F /  -13.4 °C -0.9 °F /  -18.3 °C 30.29 in /  1025.6 hPa WNW 10.4 mph /  16.7 km/h 10.4 mph /  16.7 km/h 67 % 0.00 in /  0 mm 388.0 W/m2 CLR
13:48 7.8 °F /  -13.4 °C -0.9 °F /  -18.3 °C 30.29 in /  1025.6 hPa West 11.5 mph /  18.5 km/h 11.5 mph /  18.5 km/h 67 % 0.00 in /  0 mm 380.0 W/m2 CLR
13:49 7.8 °F /  -13.4 °C -0.9 °F /  -18.3 °C 30.29 in /  1025.6 hPa West 11.5 mph /  18.5 km/h 11.5 mph /  18.5 km/h 67 % 0.00 in /  0 mm 376.0 W/m2 CLR
13:50 7.8 °F /  -13.4 °C -0.9 °F /  -18.3 °C 30.29 in /  1025.6 hPa WNW 11.5 mph /  18.5 km/h 11.5 mph /  18.5 km/h 67 % 0.00 in /  0 mm 374.0 W/m2 CLR
13:55 7.8 °F /  -13.4 °C -0.9 °F /  -18.3 °C 30.29 in /  1025.6 hPa NW 12.7 mph /  20.4 km/h 12.7 mph /  20.4 km/h 67 % 0.00 in /  0 mm 366.0 W/m2 CLR
14:00 8.0 °F /  -13.3 °C -0.4 °F /  -18 °C 30.29 in /  1025.6 hPa WNW 11.5 mph /  18.5 km/h 11.5 mph /  18.5 km/h 68 % 0.00 in /  0 mm 357.0 W/m2 CLR
14:03 8.0 °F /  -13.3 °C -0.7 °F /  -18.2 °C 30.29 in /  1025.6 hPa NW 11.5 mph /  18.5 km/h 11.5 mph /  18.5 km/h 67 % 0.00 in /  0 mm 355.0 W/m2 CLR
14:08 8.0 °F /  -13.3 °C -0.7 °F /  -18.2 °C 30.29 in /  1025.6 hPa West 11.5 mph /  18.5 km/h 11.5 mph /  18.5 km/h 67 % 0.00 in /  0 mm 345.0 W/m2 CLR
14:09 8.0 °F /  -13.3 °C -0.7 °F /  -18.2 °C 30.30 in /  1026 hPa West 11.5 mph /  18.5 km/h 11.5 mph /  18.5 km/h 67 % 0.00 in /  0 mm 343.0 W/m2 CLR
14:12 8.0 °F /  -13.3 °C -0.7 °F /  -18.2 °C 30.36 in /  1028 hPa West 11.5 mph /  18.5 km/h 11.5 mph /  18.5 km/h 67 % 0.00 in /  0 mm 336.0 W/m2 CLR
14:13 8.0 °F /  -13.3 °C -0.7 °F /  -18.2 °C 30.30 in /  1026 hPa West 11.5 mph /  18.5 km/h 11.5 mph /  18.5 km/h 67 % 0.00 in /  0 mm 334.0 W/m2 CLR
14:18 8.2 °F /  -13.2 °C -0.5 °F /  -18.1 °C 30.30 in /  1026 hPa NW 11.5 mph /  18.5 km/h 11.5 mph /  18.5 km/h 67 % 0.00 in /  0 mm 323.0 W/m2 CLR
14:22 8.2 °F /  -13.2 °C -0.5 °F /  -18.1 °C 30.30 in /  1026 hPa West 8.1 mph /  13 km/h 8.1 mph /  13 km/h 67 % 0.00 in /  0 mm 316.0 W/m2 CLR
14:23 8.2 °F /  -13.2 °C -0.5 °F /  -18.1 °C 30.30 in /  1026 hPa NW 8.1 mph /  13 km/h 8.1 mph /  13 km/h 67 % 0.00 in /  0 mm 313.0 W/m2 CLR
14:28 8.3 °F /  -13.2 °C -0.4 °F /  -18 °C 30.30 in /  1026 hPa West 12.7 mph /  20.4 km/h 12.7 mph /  20.4 km/h 67 % 0.00 in /  0 mm 302.0 W/m2 CLR
14:33 8.2 °F /  -13.2 °C -0.5 °F /  -18.1 °C 30.30 in /  1026 hPa West 9.0 mph /  14.5 km/h 9.0 mph /  14.5 km/h 67 % 0.00 in /  0 mm 292.0 W/m2 CLR
14:34 8.3 °F /  -13.2 °C -0.4 °F /  -18 °C 30.30 in /  1026 hPa WNW 11.5 mph /  18.5 km/h 11.5 mph /  18.5 km/h 67 % 0.00 in /  0 mm 288.0 W/m2 CLR
14:37 8.2 °F /  -13.2 °C -0.5 °F /  -18.1 °C 30.30 in /  1026 hPa NW 13.8 mph /  22.2 km/h 13.8 mph /  22.2 km/h 67 % 0.00 in /  0 mm 281.0 W/m2 CLR
14:42 8.2 °F /  -13.2 °C -0.5 °F /  -18.1 °C 30.30 in /  1026 hPa West 11.0 mph /  17.7 km/h 11.0 mph /  17.7 km/h 67 % 0.00 in /  0 mm 271.0 W/m2 CLR
14:47 8.1 °F /  -13.3 °C -0.6 °F /  -18.1 °C 30.30 in /  1026 hPa WNW 9.2 mph /  14.8 km/h 9.2 mph /  14.8 km/h 67 % 0.00 in /  0 mm 255.0 W/m2 CLR
14:51 8.0 °F /  -13.3 °C -0.7 °F /  -18.2 °C 30.30 in /  1026 hPa West 11.5 mph /  18.5 km/h 11.5 mph /  18.5 km/h 67 % 0.00 in /  0 mm 244.0 W/m2 CLR
14:56 7.9 °F /  -13.4 °C -0.8 °F /  -18.2 °C 30.30 in /  1026 hPa WNW 12.7 mph /  20.4 km/h 12.7 mph /  20.4 km/h 67 % 0.00 in /  0 mm 227.0 W/m2 CLR
14:59 7.8 °F /  -13.4 °C -0.9 °F /  -18.3 °C 30.30 in /  1026 hPa WNW 11.5 mph /  18.5 km/h 11.5 mph /  18.5 km/h 67 % 0.00 in /  0 mm 218.0 W/m2 CLR
15:01 7.7 °F /  -13.5 °C -0.7 °F /  -18.2 °C 30.30 in /  1026 hPa West 11.5 mph /  18.5 km/h 11.5 mph /  18.5 km/h 68 % 0.00 in /  0 mm 209.0 W/m2 CLR
15:06 7.6 °F /  -13.6 °C -0.8 °F /  -18.2 °C 30.30 in /  1026 hPa West 12.7 mph /  20.4 km/h 12.7 mph /  20.4 km/h 68 % 0.00 in /  0 mm 193.0 W/m2 CLR
15:07 7.6 °F /  -13.6 °C -0.8 °F /  -18.2 °C 30.36 in /  1028 hPa NW 12.7 mph /  20.4 km/h 12.7 mph /  20.4 km/h 68 % 0.00 in /  0 mm 193.0 W/m2 CLR
15:09 7.4 °F /  -13.7 °C -1.0 °F /  -18.3 °C 30.30 in /  1026 hPa WNW 11.5 mph /  18.5 km/h 11.5 mph /  18.5 km/h 68 % 0.00 in /  0 mm 186.0 W/m2 CLR
15:14 7.2 °F /  -13.8 °C -0.8 °F /  -18.2 °C 30.30 in /  1026 hPa WNW 13.8 mph /  22.2 km/h 13.8 mph /  22.2 km/h 69 % 0.00 in /  0 mm 172.0 W/m2 CLR
15:21 6.9 °F /  -13.9 °C -1.1 °F /  -18.4 °C 30.30 in /  1026 hPa NW 11.5 mph /  18.5 km/h 11.5 mph /  18.5 km/h 69 % 0.00 in /  0 mm 151.0 W/m2 CLR
15:22 6.9 °F /  -13.9 °C -1.1 °F /  -18.4 °C 30.37 in /  1028.3 hPa West 10.4 mph /  16.7 km/h 10.4 mph /  16.7 km/h 69 % 0.00 in /  0 mm 142.0 W/m2 CLR
15:28 6.7 °F /  -14.1 °C -1.0 °F /  -18.3 °C 30.36 in /  1028 hPa WNW 9.2 mph /  14.8 km/h 9.2 mph /  14.8 km/h 70 % 0.00 in /  0 mm 125.0 W/m2 CLR
15:29 6.7 °F /  -14.1 °C -1.0 °F /  -18.3 °C 30.37 in /  1028.3 hPa WNW 10.4 mph /  16.7 km/h 10.4 mph /  16.7 km/h 70 % 0.00 in /  0 mm 125.0 W/m2 CLR
15:31 6.6 °F /  -14.1 °C -1.1 °F /  -18.4 °C 30.36 in /  1028 hPa NW 9.2 mph /  14.8 km/h 9.2 mph /  14.8 km/h 70 % 0.00 in /  0 mm 120.0 W/m2 CLR
15:32 6.6 °F /  -14.1 °C -1.1 °F /  -18.4 °C 30.36 in /  1028 hPa NW 8.1 mph /  13 km/h 8.1 mph /  13 km/h 70 % 0.00 in /  0 mm 114.0 W/m2 CLR
15:41 6.2 °F /  -14.3 °C -1.5 °F /  -18.6 °C 30.30 in /  1026 hPa West 10.4 mph /  16.7 km/h 10.4 mph /  16.7 km/h 70 % 0.00 in /  0 mm 91.0 W/m2 CLR
15:42 6.1 °F /  -14.4 °C -1.6 °F /  -18.7 °C 30.37 in /  1028.3 hPa WNW 11.5 mph /  18.5 km/h 11.5 mph /  18.5 km/h 70 % 0.00 in /  0 mm 83.0 W/m2 CLR
15:43 6.0 °F /  -14.4 °C -1.7 °F /  -18.7 °C 30.37 in /  1028.3 hPa West 11.5 mph /  18.5 km/h 11.5 mph /  18.5 km/h 70 % 0.00 in /  0 mm 54.0 W/m2 CLR
15:44 6.0 °F /  -14.4 °C -1.4 °F /  -18.6 °C 30.30 in /  1026 hPa WNW 11.5 mph /  18.5 km/h 11.5 mph /  18.5 km/h 71 % 0.00 in /  0 mm 40.0 W/m2 CLR
15:45 5.9 °F /  -14.5 °C -1.5 °F /  -18.6 °C 30.30 in /  1026 hPa West 11.5 mph /  18.5 km/h 11.5 mph /  18.5 km/h 71 % 0.00 in /  0 mm 32.0 W/m2 CLR
15:47 5.8 °F /  -14.6 °C -1.6 °F /  -18.7 °C 30.37 in /  1028.3 hPa WNW 11.5 mph /  18.5 km/h 11.5 mph /  18.5 km/h 71 % 0.00 in /  0 mm 28.0 W/m2 CLR
15:48 5.8 °F /  -14.6 °C -1.6 °F /  -18.7 °C 30.30 in /  1026 hPa WNW 11.5 mph /  18.5 km/h 11.5 mph /  18.5 km/h 71 % 0.00 in /  0 mm 28.0 W/m2 CLR
15:49 5.7 °F /  -14.6 °C -1.7 °F /  -18.7 °C 30.37 in /  1028.3 hPa WNW 11.5 mph /  18.5 km/h 11.5 mph /  18.5 km/h 71 % 0.00 in /  0 mm 28.0 W/m2 CLR
15:50 5.6 °F /  -14.7 °C -1.8 °F /  -18.8 °C 30.30 in /  1026 hPa NW 12.0 mph /  19.3 km/h 12.0 mph /  19.3 km/h 71 % 0.00 in /  0 mm 28.0 W/m2 CLR
15:54 5.5 °F /  -14.7 °C -1.9 °F /  -18.8 °C 30.30 in /  1026 hPa NW 11.0 mph /  17.7 km/h 11.0 mph /  17.7 km/h 71 % 0.00 in /  0 mm 26.0 W/m2 CLR
16:01 5.2 °F /  -14.9 °C -1.9 °F /  -18.8 °C 30.31 in /  1026.3 hPa WNW 8.1 mph /  13 km/h 8.1 mph /  13 km/h 72 % 0.00 in /  0 mm 23.0 W/m2 CLR
16:06 5.0 °F /  -15 °C -2.1 °F /  -18.9 °C 30.31 in /  1026.3 hPa WNW 11.5 mph /  18.5 km/h 11.5 mph /  18.5 km/h 72 % 0.00 in /  0 mm 21.0 W/m2 CLR
16:09 4.9 °F /  -15.1 °C -2.2 °F /  -19 °C 30.31 in /  1026.3 hPa WNW 9.2 mph /  14.8 km/h 9.2 mph /  14.8 km/h 72 % 0.00 in /  0 mm 19.0 W/m2 CLR
16:13 4.7 °F /  -15.2 °C -2.1 °F /  -18.9 °C 30.31 in /  1026.3 hPa West 11.0 mph /  17.7 km/h 11.0 mph /  17.7 km/h 73 % 0.00 in /  0 mm 16.0 W/m2 CLR
16:17 4.6 °F /  -15.2 °C -2.2 °F /  -19 °C 30.31 in /  1026.3 hPa WNW 10.0 mph /  16.1 km/h 10.0 mph /  16.1 km/h 73 % 0.00 in /  0 mm 12.0 W/m2 CLR
16:20 4.5 °F /  -15.3 °C -2.3 °F /  -19.1 °C 30.31 in /  1026.3 hPa WNW 9.2 mph /  14.8 km/h 9.2 mph /  14.8 km/h 73 % 0.00 in /  0 mm 11.0 W/m2 CLR
16:25 4.3 °F /  -15.4 °C -2.4 °F /  -19.1 °C 30.31 in /  1026.3 hPa West 9.2 mph /  14.8 km/h 9.2 mph /  14.8 km/h 73 % 0.00 in /  0 mm 7.0 W/m2 CLR
16:26 4.2 °F /  -15.4 °C -2.5 °F /  -19.2 °C 30.31 in /  1026.3 hPa WNW 8.1 mph /  13 km/h 8.1 mph /  13 km/h 73 % 0.00 in /  0 mm 7.0 W/m2 CLR
16:31 4.1 °F /  -15.5 °C -2.6 °F /  -19.2 °C 30.31 in /  1026.3 hPa WNW 10.4 mph /  16.7 km/h 10.4 mph /  16.7 km/h 73 % 0.00 in /  0 mm 5.0 W/m2 CLR
16:34 4.0 °F /  -15.6 °C -2.7 °F /  -19.3 °C 30.31 in /  1026.3 hPa West 9.2 mph /  14.8 km/h 9.2 mph /  14.8 km/h 73 % 0.00 in /  0 mm 0.0 W/m2 CLR
16:39 3.8 °F /  -15.7 °C -2.9 °F /  -19.4 °C 30.31 in /  1026.3 hPa NW 11.0 mph /  17.7 km/h 11.0 mph /  17.7 km/h 73 % 0.00 in /  0 mm 0.0 W/m2 CLR
16:40 3.8 °F /  -15.7 °C -2.9 °F /  -19.4 °C 30.31 in /  1026.3 hPa WNW 11.5 mph /  18.5 km/h 11.5 mph /  18.5 km/h 73 % 0.00 in /  0 mm 0.0 W/m2 CLR
16:44 3.7 °F /  -15.7 °C -2.7 °F /  -19.3 °C 30.31 in /  1026.3 hPa WNW 10.4 mph /  16.7 km/h 10.4 mph /  16.7 km/h 74 % 0.00 in /  0 mm 0.0 W/m2 CLR
16:47 3.6 °F /  -15.8 °C -3.1 °F /  -19.5 °C 30.31 in /  1026.3 hPa West 9.2 mph /  14.8 km/h 9.2 mph /  14.8 km/h 73 % 0.00 in /  0 mm 0.0 W/m2 CLR
16:50 3.5 °F /  -15.8 °C -3.2 °F /  -19.6 °C 30.31 in /  1026.3 hPa NW 10.4 mph /  16.7 km/h 10.4 mph /  16.7 km/h 73 % 0.00 in /  0 mm 0.0 W/m2 CLR
16:52 3.4 °F /  -15.9 °C -3.0 °F /  -19.4 °C 30.31 in /  1026.3 hPa NW 11.5 mph /  18.5 km/h 11.5 mph /  18.5 km/h 74 % 0.00 in /  0 mm 0.0 W/m2 CLR
16:58 3.2 °F /  -16 °C -3.2 °F /  -19.6 °C 30.31 in /  1026.3 hPa WNW 10.4 mph /  16.7 km/h 10.4 mph /  16.7 km/h 74 % 0.00 in /  0 mm 0.0 W/m2 CLR
16:59 3.2 °F /  -16 °C -3.2 °F /  -19.6 °C 30.31 in /  1026.3 hPa WNW 9.2 mph /  14.8 km/h 9.2 mph /  14.8 km/h 74 % 0.00 in /  0 mm 0.0 W/m2 CLR
17:04 3.1 °F /  -16.1 °C -3.3 °F /  -19.6 °C 30.31 in /  1026.3 hPa WNW 6.9 mph /  11.1 km/h 6.9 mph /  11.1 km/h 74 % 0.00 in /  0 mm 0.0 W/m2 CLR
17:05 3.0 °F /  -16.1 °C -3.4 °F /  -19.7 °C 30.31 in /  1026.3 hPa WNW 8.1 mph /  13 km/h 8.1 mph /  13 km/h 74 % 0.00 in /  0 mm 0.0 W/m2 CLR
17:10 2.9 °F /  -16.2 °C -3.2 °F /  -19.6 °C 30.31 in /  1026.3 hPa WNW 11.5 mph /  18.5 km/h 11.5 mph /  18.5 km/h 75 % 0.00 in /  0 mm 0.0 W/m2 CLR
17:15 2.8 °F /  -16.2 °C -3.3 °F /  -19.6 °C 30.31 in /  1026.3 hPa NW 9.2 mph /  14.8 km/h 9.2 mph /  14.8 km/h 75 % 0.00 in /  0 mm 0.0 W/m2 CLR
17:21 2.7 °F /  -16.3 °C -3.4 °F /  -19.7 °C 30.32 in /  1026.6 hPa NW 10.4 mph /  16.7 km/h 10.4 mph /  16.7 km/h 75 % 0.00 in /  0 mm 0.0 W/m2 CLR
17:26 2.5 °F /  -16.4 °C -3.6 °F /  -19.8 °C 30.32 in /  1026.6 hPa NW 10.4 mph /  16.7 km/h 10.4 mph /  16.7 km/h 75 % 0.00 in /  0 mm 0.0 W/m2 CLR
17:28 2.4 °F /  -16.4 °C -3.7 °F /  -19.8 °C 30.32 in /  1026.6 hPa West 8.1 mph /  13 km/h 8.1 mph /  13 km/h 75 % 0.00 in /  0 mm 0.0 W/m2 CLR
17:33 2.3 °F /  -16.5 °C -3.5 °F /  -19.7 °C 30.32 in /  1026.6 hPa WNW 8.1 mph /  13 km/h 8.1 mph /  13 km/h 76 % 0.00 in /  0 mm 0.0 W/m2 CLR
17:39 2.2 °F /  -16.6 °C -3.6 °F /  -19.8 °C 30.32 in /  1026.6 hPa WNW 6.9 mph /  11.1 km/h 6.9 mph /  11.1 km/h 76 % 0.00 in /  0 mm 0.0 W/m2 CLR
17:40 2.2 °F /  -16.6 °C -3.6 °F /  -19.8 °C 30.32 in /  1026.6 hPa WNW 8.1 mph /  13 km/h 8.1 mph /  13 km/h 76 % 0.00 in /  0 mm 0.0 W/m2 CLR
17:41 2.1 °F /  -16.6 °C -3.7 °F /  -19.8 °C 30.32 in /  1026.6 hPa WNW 7.0 mph /  11.3 km/h 7.0 mph /  11.3 km/h 76 % 0.00 in /  0 mm 0.0 W/m2 CLR
17:47 1.9 °F /  -16.7 °C -3.9 °F /  -19.9 °C 30.32 in /  1026.6 hPa West 8.1 mph /  13 km/h 8.1 mph /  13 km/h 76 % 0.00 in /  0 mm 0.0 W/m2 CLR
17:51 1.7 °F /  -16.8 °C -3.8 °F /  -19.9 °C 30.32 in /  1026.6 hPa WNW 8.1 mph /  13 km/h 8.1 mph /  13 km/h 77 % 0.00 in /  0 mm 0.0 W/m2 CLR
17:53 1.6 °F /  -16.9 °C -3.9 °F /  -19.9 °C 30.32 in /  1026.6 hPa NW 8.1 mph /  13 km/h 8.1 mph /  13 km/h 77 % 0.00 in /  0 mm 0.0 W/m2 CLR
17:58 1.5 °F /  -16.9 °C -4.0 °F /  -20 °C 30.32 in /  1026.6 hPa WNW 6.9 mph /  11.1 km/h 6.9 mph /  11.1 km/h 77 % 0.00 in /  0 mm 0.0 W/m2 CLR
18:03 1.6 °F /  -16.9 °C -3.7 °F /  -19.8 °C 30.32 in /  1026.6 hPa WNW 4.6 mph /  7.4 km/h 4.6 mph /  7.4 km/h 78 % 0.00 in /  0 mm 0.0 W/m2 CLR
18:05 1.6 °F /  -16.9 °C -3.7 °F /  -19.8 °C 30.32 in /  1026.6 hPa WNW 9.2 mph /  14.8 km/h 9.2 mph /  14.8 km/h 78 % 0.00 in /  0 mm 0.0 W/m2 CLR
18:10 1.9 °F /  -16.7 °C -3.4 °F /  -19.7 °C 30.32 in /  1026.6 hPa NW 6.9 mph /  11.1 km/h 6.9 mph /  11.1 km/h 78 % 0.00 in /  0 mm 0.0 W/m2 CLR
18:13 1.8 °F /  -16.8 °C -3.5 °F /  -19.7 °C 30.32 in /  1026.6 hPa WNW 9.2 mph /  14.8 km/h 9.2 mph /  14.8 km/h 78 % 0.00 in /  0 mm 0.0 W/m2 CLR
18:18 1.7 °F /  -16.8 °C -3.6 °F /  -19.8 °C 30.32 in /  1026.6 hPa WNW 9.2 mph /  14.8 km/h 9.2 mph /  14.8 km/h 78 % 0.00 in /  0 mm 0.0 W/m2 CLR
18:29 1.5 °F /  -16.9 °C -3.8 °F /  -19.9 °C 30.32 in /  1026.6 hPa WNW 11.5 mph /  18.5 km/h 11.5 mph /  18.5 km/h 78 % 0.00 in /  0 mm 0.0 W/m2 CLR
18:34 1.6 °F /  -16.9 °C -3.7 °F /  -19.8 °C 30.32 in /  1026.6 hPa WNW 9.2 mph /  14.8 km/h 9.2 mph /  14.8 km/h 78 % 0.00 in /  0 mm 0.0 W/m2 CLR
18:36 1.6 °F /  -16.9 °C -3.7 °F /  -19.8 °C 30.32 in /  1026.6 hPa WNW 9.2 mph /  14.8 km/h 9.2 mph /  14.8 km/h 78 % 0.00 in /  0 mm 0.0 W/m2 CLR
18:41 1.5 °F /  -16.9 °C -3.8 °F /  -19.9 °C 30.32 in /  1026.6 hPa WNW 8.1 mph /  13 km/h 8.1 mph /  13 km/h 78 % 0.00 in /  0 mm 0.0 W/m2 CLR
18:46 1.6 °F /  -16.9 °C -3.7 °F /  -19.8 °C 30.32 in /  1026.6 hPa West 9.2 mph /  14.8 km/h 9.2 mph /  14.8 km/h 78 % 0.00 in /  0 mm 0.0 W/m2 CLR
18:47 1.6 °F /  -16.9 °C -3.7 °F /  -19.8 °C 30.32 in /  1026.6 hPa WNW 8.1 mph /  13 km/h 8.1 mph /  13 km/h 78 % 0.00 in /  0 mm 0.0 W/m2 CLR
18:52 1.5 °F /  -16.9 °C -4.0 °F /  -20 °C 30.32 in /  1026.6 hPa WNW 9.2 mph /  14.8 km/h 9.2 mph /  14.8 km/h 77 % 0.00 in /  0 mm 0.0 W/m2 CLR
18:53 1.5 °F /  -16.9 °C -4.0 °F /  -20 °C 30.33 in /  1027 hPa WNW 9.0 mph /  14.5 km/h 9.0 mph /  14.5 km/h 77 % 0.00 in /  0 mm 0.0 W/m2 CLR
18:58 1.4 °F /  -17 °C -3.9 °F /  -19.9 °C 30.33 in /  1027 hPa WNW 9.2 mph /  14.8 km/h 9.2 mph /  14.8 km/h 78 % 0.00 in /  0 mm 0.0 W/m2 CLR
19:04 1.4 °F /  -17 °C -3.9 °F /  -19.9 °C 30.33 in /  1027 hPa West 9.2 mph /  14.8 km/h 9.2 mph /  14.8 km/h 78 % 0.00 in /  0 mm 0.0 W/m2 CLR
19:09 1.1 °F /  -17.2 °C -4.2 °F /  -20.1 °C 30.33 in /  1027 hPa WNW 8.1 mph /  13 km/h 8.1 mph /  13 km/h 78 % 0.00 in /  0 mm 0.0 W/m2 CLR
19:13 1.0 °F /  -17.2 °C -4.3 °F /  -20.2 °C 30.33 in /  1027 hPa WNW 10.4 mph /  16.7 km/h 10.4 mph /  16.7 km/h 78 % 0.00 in /  0 mm 0.0 W/m2 CLR
19:18 0.9 °F /  -17.3 °C -4.4 °F /  -20.2 °C 30.32 in /  1026.6 hPa WNW 9.2 mph /  14.8 km/h 9.2 mph /  14.8 km/h 78 % 0.00 in /  0 mm 0.0 W/m2 CLR
19:23 0.9 °F /  -17.3 °C -4.4 °F /  -20.2 °C 30.33 in /  1027 hPa WNW 10.4 mph /  16.7 km/h 10.4 mph /  16.7 km/h 78 % 0.00 in /  0 mm 0.0 W/m2 CLR
19:28 1.0 °F /  -17.2 °C -4.3 °F /  -20.2 °C 30.33 in /  1027 hPa NW 6.0 mph /  9.7 km/h 6.0 mph /  9.7 km/h 78 % 0.00 in /  0 mm 0.0 W/m2 CLR
19:31 1.0 °F /  -17.2 °C -4.3 °F /  -20.2 °C 30.32 in /  1026.6 hPa WNW 6.9 mph /  11.1 km/h 6.9 mph /  11.1 km/h 78 % 0.00 in /  0 mm 0.0 W/m2 CLR
19:35 0.9 °F /  -17.3 °C -4.4 °F /  -20.2 °C 30.32 in /  1026.6 hPa West 6.9 mph /  11.1 km/h 6.9 mph /  11.1 km/h 78 % 0.00 in /  0 mm 0.0 W/m2 CLR
19:40 0.9 °F /  -17.3 °C -4.4 °F /  -20.2 °C 30.32 in /  1026.6 hPa WNW 8.1 mph /  13 km/h 8.1 mph /  13 km/h 78 % 0.00 in /  0 mm 0.0 W/m2 CLR
19:45 0.9 °F /  -17.3 °C -4.4 °F /  -20.2 °C 30.32 in /  1026.6 hPa WNW 11.5 mph /  18.5 km/h 11.5 mph /  18.5 km/h 78 % 0.00 in /  0 mm 0.0 W/m2 CLR
19:46 0.9 °F /  -17.3 °C -4.4 °F /  -20.2 °C 30.32 in /  1026.6 hPa WNW 11.5 mph /  18.5 km/h 11.5 mph /  18.5 km/h 78 % 0.00 in /  0 mm 0.0 W/m2 CLR
19:48 0.9 °F /  -17.3 °C -4.4 °F /  -20.2 °C 30.32 in /  1026.6 hPa West 9.2 mph /  14.8 km/h 9.2 mph /  14.8 km/h 78 % 0.00 in /  0 mm 0.0 W/m2 CLR
19:51 0.9 °F /  -17.3 °C -4.4 °F /  -20.2 °C 30.32 in /  1026.6 hPa WNW 6.9 mph /  11.1 km/h 6.9 mph /  11.1 km/h 78 % 0.00 in /  0 mm 0.0 W/m2 CLR
19:54 0.9 °F /  -17.3 °C -4.4 °F /  -20.2 °C 30.33 in /  1027 hPa WNW 8.1 mph /  13 km/h 8.1 mph /  13 km/h 78 % 0.00 in /  0 mm 0.0 W/m2 CLR
19:59 0.8 °F /  -17.3 °C -4.5 °F /  -20.3 °C 30.33 in /  1027 hPa WNW 8.0 mph /  12.9 km/h 8.0 mph /  12.9 km/h 78 % 0.00 in /  0 mm 0.0 W/m2 CLR
20:01 0.7 °F /  -17.4 °C -4.6 °F /  -20.3 °C 30.32 in /  1026.6 hPa WNW 10.4 mph /  16.7 km/h 10.4 mph /  16.7 km/h 78 % 0.00 in /  0 mm 0.0 W/m2 CLR
20:06 0.6 °F /  -17.4 °C -4.4 °F /  -20.2 °C 30.32 in /  1026.6 hPa NW 10.4 mph /  16.7 km/h 10.4 mph /  16.7 km/h 79 % 0.00 in /  0 mm 0.0 W/m2 CLR
20:09 0.6 °F /  -17.4 °C -4.4 °F /  -20.2 °C 30.32 in /  1026.6 hPa NW 8.1 mph /  13 km/h 8.1 mph /  13 km/h 79 % 0.00 in /  0 mm 0.0 W/m2 CLR
20:14 0.5 °F /  -17.5 °C -4.5 °F /  -20.3 °C 30.33 in /  1027 hPa WNW 8.0 mph /  12.9 km/h 8.0 mph /  12.9 km/h 79 % 0.00 in /  0 mm 0.0 W/m2 CLR
20:19 0.5 °F /  -17.5 °C -4.5 °F /  -20.3 °C 30.33 in /  1027 hPa WNW 9.2 mph /  14.8 km/h 9.2 mph /  14.8 km/h 79 % 0.00 in /  0 mm 0.0 W/m2 CLR
20:25 0.3 °F /  -17.6 °C -4.9 °F /  -20.5 °C 30.33 in /  1027 hPa WNW 7.0 mph /  11.3 km/h 7.0 mph /  11.3 km/h 78 % 0.00 in /  0 mm 0.0 W/m2 CLR
20:26 0.3 °F /  -17.6 °C -4.7 °F /  -20.4 °C 30.33 in /  1027 hPa WNW 6.9 mph /  11.1 km/h 6.9 mph /  11.1 km/h 79 % 0.00 in /  0 mm 0.0 W/m2 CLR
20:31 0.2 °F /  -17.7 °C -4.8 °F /  -20.4 °C 30.33 in /  1027 hPa WNW 8.1 mph /  13 km/h 8.1 mph /  13 km/h 79 % 0.00 in /  0 mm 0.0 W/m2 CLR
20:32 0.2 °F /  -17.7 °C -4.8 °F /  -20.4 °C 30.33 in /  1027 hPa WNW 6.9 mph /  11.1 km/h 6.9 mph /  11.1 km/h 79 % 0.00 in /  0 mm 0.0 W/m2 CLR
20:33 0.2 °F /  -17.7 °C -4.8 °F /  -20.4 °C 30.33 in /  1027 hPa WNW 5.8 mph /  9.3 km/h 5.8 mph /  9.3 km/h 79 % 0.00 in /  0 mm 0.0 W/m2 CLR
20:40 0.2 °F /  -17.7 °C -4.8 °F /  -20.4 °C 30.33 in /  1027 hPa WNW 8.1 mph /  13 km/h 8.1 mph /  13 km/h 79 % 0.00 in /  0 mm 0.0 W/m2 CLR
20:45 0.1 °F /  -17.7 °C -4.9 °F /  -20.5 °C 30.33 in /  1027 hPa WNW 8.1 mph /  13 km/h 8.1 mph /  13 km/h 79 % 0.00 in /  0 mm 0.0 W/m2 CLR
20:46 0.1 °F /  -17.7 °C -4.9 °F /  -20.5 °C 30.33 in /  1027 hPa WNW 9.2 mph /  14.8 km/h 9.2 mph /  14.8 km/h 79 % 0.00 in /  0 mm 0.0 W/m2 CLR
20:51 0.1 °F /  -17.7 °C -4.9 °F /  -20.5 °C 30.32 in /  1026.6 hPa WNW 6.9 mph /  11.1 km/h 6.9 mph /  11.1 km/h 79 % 0.00 in /  0 mm 0.0 W/m2 CLR
20:53 0.1 °F /  -17.7 °C -4.9 °F /  -20.5 °C 30.33 in /  1027 hPa WNW 8.1 mph /  13 km/h 8.1 mph /  13 km/h 79 % 0.00 in /  0 mm 0.0 W/m2 CLR
20:58 0.0 °F /  -17.8 °C -5.0 °F /  -20.6 °C 30.33 in /  1027 hPa NW 8.1 mph /  13 km/h 8.1 mph /  13 km/h 79 % 0.00 in /  0 mm 0.0 W/m2 CLR
21:01 -0.2 °F /  -17.9 °C -5.2 °F /  -20.7 °C 30.33 in /  1027 hPa WNW 9.2 mph /  14.8 km/h 9.2 mph /  14.8 km/h 79 % 0.00 in /  0 mm 0.0 W/m2 CLR
21:07 -0.4 °F /  -18 °C -5.4 °F /  -20.8 °C 30.33 in /  1027 hPa WNW 6.0 mph /  9.7 km/h 6.0 mph /  9.7 km/h 79 % 0.00 in /  0 mm 0.0 W/m2 CLR
21:09 -0.4 °F /  -18 °C -5.4 °F /  -20.8 °C 30.33 in /  1027 hPa WNW 9.2 mph /  14.8 km/h 9.2 mph /  14.8 km/h 79 % 0.00 in /  0 mm 0.0 W/m2 CLR
21:14 -0.5 °F /  -18.1 °C -5.5 °F /  -20.8 °C 30.33 in /  1027 hPa WNW 6.9 mph /  11.1 km/h 6.9 mph /  11.1 km/h 79 % 0.00 in /  0 mm 0.0 W/m2 CLR
21:18 -0.5 °F /  -18.1 °C -5.5 °F /  -20.8 °C 30.33 in /  1027 hPa WNW 10.0 mph /  16.1 km/h 10.0 mph /  16.1 km/h 79 % 0.00 in /  0 mm 0.0 W/m2 CLR
21:19 -0.6 °F /  -18.1 °C -5.3 °F /  -20.7 °C 30.33 in /  1027 hPa West 10.4 mph /  16.7 km/h 10.4 mph /  16.7 km/h 80 % 0.00 in /  0 mm 0.0 W/m2 CLR
21:24 -0.7 °F /  -18.2 °C -5.7 °F /  -20.9 °C 30.33 in /  1027 hPa West 5.8 mph /  9.3 km/h 5.8 mph /  9.3 km/h 79 % 0.00 in /  0 mm 0.0 W/m2 CLR
21:29 -0.9 °F /  -18.3 °C -5.8 °F /  -21 °C 30.33 in /  1027 hPa WNW 9.2 mph /  14.8 km/h 9.2 mph /  14.8 km/h 79 % 0.00 in /  0 mm 0.0 W/m2 CLR
21:33 -0.9 °F /  -18.3 °C -5.6 °F /  -20.9 °C 30.33 in /  1027 hPa WNW 6.9 mph /  11.1 km/h 6.9 mph /  11.1 km/h 80 % 0.00 in /  0 mm 0.0 W/m2 CLR
21:36 -0.9 °F /  -18.3 °C -5.6 °F /  -20.9 °C 30.33 in /  1027 hPa WNW 5.8 mph /  9.3 km/h 5.8 mph /  9.3 km/h 80 % 0.00 in /  0 mm 0.0 W/m2 CLR
21:39 -0.9 °F /  -18.3 °C -5.6 °F /  -20.9 °C 30.33 in /  1027 hPa WNW 5.8 mph /  9.3 km/h 5.8 mph /  9.3 km/h 80 % 0.00 in /  0 mm 0.0 W/m2 CLR
21:44 -1.0 °F /  -18.3 °C -5.7 °F /  -20.9 °C 30.34 in /  1027.3 hPa WNW 6.9 mph /  11.1 km/h 6.9 mph /  11.1 km/h 80 % 0.00 in /  0 mm 0.0 W/m2 CLR
21:50 -0.9 °F /  -18.3 °C -5.6 °F /  -20.9 °C 30.34 in /  1027.3 hPa West 6.9 mph /  11.1 km/h 6.9 mph /  11.1 km/h 80 % 0.00 in /  0 mm 0.0 W/m2 CLR
21:55 -0.6 °F /  -18.1 °C -5.0 °F /  -20.6 °C 30.34 in /  1027.3 hPa WNW 5.8 mph /  9.3 km/h 5.8 mph /  9.3 km/h 81 % 0.00 in /  0 mm 0.0 W/m2 CLR
22:00 -0.5 °F /  -18.1 °C -5.2 °F /  -20.7 °C 30.34 in /  1027.3 hPa West 6.9 mph /  11.1 km/h 6.9 mph /  11.1 km/h 80 % 0.00 in /  0 mm 0.0 W/m2 CLR
22:01 -0.6 °F /  -18.1 °C -5.3 °F /  -20.7 °C 30.34 in /  1027.3 hPa WNW 6.9 mph /  11.1 km/h 6.9 mph /  11.1 km/h 80 % 0.00 in /  0 mm 0.0 W/m2 CLR
22:06 -0.8 °F /  -18.2 °C -5.5 °F /  -20.8 °C 30.33 in /  1027 hPa WNW 3.5 mph /  5.6 km/h 3.5 mph /  5.6 km/h 80 % 0.00 in /  0 mm 0.0 W/m2 CLR
22:08 -0.8 °F /  -18.2 °C -5.5 °F /  -20.8 °C 30.33 in /  1027 hPa WNW 6.0 mph /  9.7 km/h 6.0 mph /  9.7 km/h 80 % 0.00 in /  0 mm 0.0 W/m2 CLR
22:13 -0.9 °F /  -18.3 °C -5.3 °F /  -20.7 °C 30.33 in /  1027 hPa West 5.8 mph /  9.3 km/h 5.8 mph /  9.3 km/h 81 % 0.00 in /  0 mm 0.0 W/m2 CLR
22:18 -0.6 °F /  -18.1 °C -5.0 °F /  -20.6 °C 30.34 in /  1027.3 hPa WNW 8.1 mph /  13 km/h 8.1 mph /  13 km/h 81 % 0.00 in /  0 mm 0.0 W/m2 CLR
22:20 -0.5 °F /  -18.1 °C -4.9 °F /  -20.5 °C 30.34 in /  1027.3 hPa West 10.4 mph /  16.7 km/h 10.4 mph /  16.7 km/h 81 % 0.00 in /  0 mm 0.0 W/m2 CLR
22:25 -0.4 °F /  -18 °C -4.8 °F /  -20.4 °C 30.34 in /  1027.3 hPa WNW 9.2 mph /  14.8 km/h 9.2 mph /  14.8 km/h 81 % 0.00 in /  0 mm 0.0 W/m2 CLR
22:28 -0.5 °F /  -18.1 °C -4.9 °F /  -20.5 °C 30.34 in /  1027.3 hPa West 9.2 mph /  14.8 km/h 9.2 mph /  14.8 km/h 81 % 0.00 in /  0 mm 0.0 W/m2 CLR
22:32 -0.7 °F /  -18.2 °C -5.4 °F /  -20.8 °C 30.34 in /  1027.3 hPa WNW 8.1 mph /  13 km/h 8.1 mph /  13 km/h 80 % 0.00 in /  0 mm 0.0 W/m2 CLR
22:37 -0.9 °F /  -18.3 °C -5.6 °F /  -20.9 °C 30.34 in /  1027.3 hPa WNW 9.2 mph /  14.8 km/h 9.2 mph /  14.8 km/h 80 % 0.00 in /  0 mm 0.0 W/m2 CLR
22:39 -1.0 °F /  -18.3 °C -5.4 °F /  -20.8 °C 30.34 in /  1027.3 hPa West 9.0 mph /  14.5 km/h 9.0 mph /  14.5 km/h 81 % 0.00 in /  0 mm 0.0 W/m2 CLR
22:42 -1.0 °F /  -18.3 °C -5.4 °F /  -20.8 °C 30.34 in /  1027.3 hPa WNW 9.2 mph /  14.8 km/h 9.2 mph /  14.8 km/h 81 % 0.00 in /  0 mm 0.0 W/m2 CLR
22:45 -1.0 °F /  -18.3 °C -5.4 °F /  -20.8 °C 30.34 in /  1027.3 hPa WNW 8.1 mph /  13 km/h 8.1 mph /  13 km/h 81 % 0.00 in /  0 mm 0.0 W/m2 CLR
22:47 -1.0 °F /  -18.3 °C -5.4 °F /  -20.8 °C 30.34 in /  1027.3 hPa WNW 8.1 mph /  13 km/h 8.1 mph /  13 km/h 81 % 0.00 in /  0 mm 0.0 W/m2 CLR
22:52 -1.0 °F /  -18.3 °C -5.4 °F /  -20.8 °C 30.34 in /  1027.3 hPa WNW 9.2 mph /  14.8 km/h 9.2 mph /  14.8 km/h 81 % 0.00 in /  0 mm 0.0 W/m2 CLR
22:54 -1.0 °F /  -18.3 °C -5.4 °F /  -20.8 °C 30.34 in /  1027.3 hPa WNW 9.2 mph /  14.8 km/h 9.2 mph /  14.8 km/h 81 % 0.00 in /  0 mm 0.0 W/m2 CLR
22:59 -1.2 °F /  -18.4 °C -5.6 °F /  -20.9 °C 30.34 in /  1027.3 hPa WNW 6.9 mph /  11.1 km/h 6.9 mph /  11.1 km/h 81 % 0.00 in /  0 mm 0.0 W/m2 CLR
23:02 -1.2 °F /  -18.4 °C -5.6 °F /  -20.9 °C 30.35 in /  1027.7 hPa West 8.1 mph /  13 km/h 8.1 mph /  13 km/h 81 % 0.00 in /  0 mm 0.0 W/m2 CLR
23:03 -1.3 °F /  -18.5 °C -5.7 °F /  -20.9 °C 30.34 in /  1027.3 hPa WNW 9.2 mph /  14.8 km/h 9.2 mph /  14.8 km/h 81 % 0.00 in /  0 mm 0.0 W/m2 CLR
23:08 -1.2 °F /  -18.4 °C -5.6 °F /  -20.9 °C 30.35 in /  1027.7 hPa NW 8.0 mph /  12.9 km/h 8.0 mph /  12.9 km/h 81 % 0.00 in /  0 mm 0.0 W/m2 CLR
23:14 -1.1 °F /  -18.4 °C -5.5 °F /  -20.8 °C 30.35 in /  1027.7 hPa WNW 9.2 mph /  14.8 km/h 9.2 mph /  14.8 km/h 81 % 0.00 in /  0 mm 0.0 W/m2 CLR
23:15 -1.1 °F /  -18.4 °C -5.5 °F /  -20.8 °C 30.35 in /  1027.7 hPa WNW 9.2 mph /  14.8 km/h 9.2 mph /  14.8 km/h 81 % 0.00 in /  0 mm 0.0 W/m2 CLR
23:20 -1.2 °F /  -18.4 °C -5.6 °F /  -20.9 °C 30.34 in /  1027.3 hPa WNW 9.2 mph /  14.8 km/h 9.2 mph /  14.8 km/h 81 % 0.00 in /  0 mm 0.0 W/m2 CLR
23:21 -1.2 °F /  -18.4 °C -5.6 °F /  -20.9 °C 30.34 in /  1027.3 hPa West 6.9 mph /  11.1 km/h 6.9 mph /  11.1 km/h 81 % 0.00 in /  0 mm 0.0 W/m2 CLR
23:26 -1.2 °F /  -18.4 °C -5.6 °F /  -20.9 °C 30.34 in /  1027.3 hPa West 8.1 mph /  13 km/h 8.1 mph /  13 km/h 81 % 0.00 in /  0 mm 0.0 W/m2 CLR
23:28 -1.2 °F /  -18.4 °C -5.6 °F /  -20.9 °C 30.34 in /  1027.3 hPa West 9.2 mph /  14.8 km/h 9.2 mph /  14.8 km/h 81 % 0.00 in /  0 mm 0.0 W/m2 CLR
23:34 -1.2 °F /  -18.4 °C -5.6 °F /  -20.9 °C 30.34 in /  1027.3 hPa NW 11.5 mph /  18.5 km/h 11.5 mph /  18.5 km/h 81 % 0.00 in /  0 mm 0.0 W/m2 CLR
23:39 -1.2 °F /  -18.4 °C -5.6 °F /  -20.9 °C 30.34 in /  1027.3 hPa WNW 9.2 mph /  14.8 km/h 9.2 mph /  14.8 km/h 81 % 0.00 in /  0 mm 0.0 W/m2 CLR
23:43 -1.2 °F /  -18.4 °C -5.6 °F /  -20.9 °C 30.34 in /  1027.3 hPa WNW 8.1 mph /  13 km/h 8.1 mph /  13 km/h 81 % 0.00 in /  0 mm 0.0 W/m2 CLR
23:48 -1.3 °F /  -18.5 °C -6.0 °F /  -21.1 °C 30.34 in /  1027.3 hPa WNW 8.1 mph /  13 km/h 8.1 mph /  13 km/h 80 % 0.00 in /  0 mm 0.0 W/m2 -SN
23:53 -1.4 °F /  -18.6 °C -6.1 °F /  -21.2 °C 30.34 in /  1027.3 hPa WNW 5.8 mph /  9.3 km/h 5.8 mph /  9.3 km/h 80 % 0.00 in /  0 mm 0.0 W/m2 -SN
23:55 -1.4 °F /  -18.6 °C -6.1 °F /  -21.2 °C 30.34 in /  1027.3 hPa WNW 6.9 mph /  11.1 km/h 6.9 mph /  11.1 km/h 80 % 0.00 in /  0 mm 0.0 W/m2 -SN
23:56 -1.5 °F /  -18.6 °C -6.2 °F /  -21.2 °C 30.34 in /  1027.3 hPa NW 6.0 mph /  9.7 km/h 6.0 mph /  9.7 km/h 80 % 0.00 in /  0 mm 0.0 W/m2 -SN
Bourbonnais, Illinois, USA
Compliments of Weather Underground - 4.25 mb